Data for 01/20/2012

Time Sea-Level Adjusted Pressure Absolute Pressure Temperature Relative Humidity Dew Point Precipitation   
(mb) (inHg) (mb) (inHg) (C) (F) (%) (C) (F) (mm) (in)
00:01 1004 29.65 833 24.6 4.9 40.7 56 -3.2 26.3 -91.1 -3.587
00:02 1004 29.65 833 24.6 5 41 56 -3 26.6 -91.1 -3.587
00:03 1004 29.65 833 24.6 5 41 57 -2.9 26.8 -91.1 -3.587
00:04 1004 29.65 833 24.6 4.9 40.9 57 -2.9 26.7 -91.1 -3.587
00:05 1004 29.65 833 24.6 4.9 40.8 57 -2.9 26.8 -91.1 -3.587
00:06 1004 29.65 833 24.6 4.9 40.8 57 -3 26.5 -91.1 -3.587
00:07 1004 29.65 833 24.6 4.9 40.8 57 -2.9 26.8 -91.1 -3.587
00:08 1004 29.65 833 24.6 4.8 40.6 58 -2.8 27 -91.1 -3.587
00:09 1004 29.65 833 24.6 4.7 40.5 57 -3 26.6 -91.1 -3.587
00:10 1004 29.65 833 24.6 4.7 40.5 56 -3.3 26 -91.1 -3.587
00:11 1004 29.65 833 24.6 4.8 40.6 57 -3.1 26.4 -91.1 -3.587
00:12 1004 29.65 833 24.6 4.7 40.5 57 -3 26.7 -91.1 -3.587
00:13 1004 29.65 833 24.6 4.8 40.6 55 -3.4 25.9 -91.1 -3.587
00:14 1004 29.65 833 24.6 4.9 40.9 56 -3.1 26.4 -91.1 -3.587
00:15 1004 29.65 833 24.6 4.9 40.9 55 -3.3 26.1 -91.1 -3.587
00:16 1004 29.65 833 24.6 4.9 40.8 54 -3.6 25.6 -91.1 -3.587
00:17 1004 29.65 833 24.6 5 41 52 -4 24.8 -91.1 -3.587
00:18 1004 29.65 833 24.6 5.2 41.4 52 -3.9 25.1 -91.1 -3.587
00:19 1004 29.65 833 24.6 5.3 41.5 51 -4 24.7 -91.1 -3.587
00:20 1004 29.65 833 24.6 5.3 41.6 52 -3.7 25.3 -91.1 -3.587
00:21 1004 29.65 833 24.6 5.3 41.5 52 -3.8 25.2 -91.1 -3.587
00:22 1004 29.65 833 24.6 5.3 41.6 52 -3.7 25.3 -91.1 -3.587
00:23 1004 29.65 833 24.6 5.3 41.6 51 -3.9 25 -91.1 -3.587
00:24 1004 29.65 833 24.6 5.3 41.6 51 -4.1 24.7 -91.1 -3.587
00:25 1004 29.65 833 24.6 5.3 41.6 52 -3.8 25.1 -91.1 -3.587
00:26 1004 29.65 833 24.6 5.4 41.7 51 -3.9 24.9 -91.1 -3.587
00:27 1004 29.65 833 24.6 5.4 41.7 51 -3.9 25 -91.1 -3.587
00:28 1004 29.65 833 24.6 5.4 41.6 51 -3.9 25 -91.1 -3.587
00:29 1004 29.65 833 24.6 5.3 41.5 52 -3.8 25.1 -91.1 -3.587
00:30 1004 29.65 833 24.6 5.3 41.5 52 -3.8 25.1 -91.1 -3.587
00:31 1004 29.65 833 24.6 5.3 41.5 50 -4.3 24.2 -91.1 -3.587
00:32 1004 29.65 833 24.6 5.5 41.8 49 -4.4 24.1 -91.1 -3.587
00:33 1004 29.65 833 24.6 5.6 42.1 49 -4.2 24.4 -91.1 -3.587
00:34 1004 29.65 833 24.6 5.6 42.1 50 -4 24.8 -91.1 -3.587
00:35 1004 29.65 833 24.6 5.6 42.1 49 -4.3 24.2 -91.1 -3.587
00:36 1004 29.65 833 24.6 5.7 42.2 50 -3.9 24.9 -91.1 -3.587
00:37 1004 29.65 834 24.63 5.6 42.2 50 -3.8 25.1 -91.1 -3.587
00:38 1004 29.65 834 24.63 5.6 42 49 -4.3 24.2 -91.1 -3.587
00:39 1004 29.65 834 24.63 5.6 42.2 50 -4 24.8 -91.1 -3.587
00:40 1004 29.65 834 24.63 5.6 42.1 49 -4.2 24.5 -91.1 -3.587
00:41 1004 29.65 833 24.6 5.6 42.1 49 -4.4 24.2 -91.1 -3.587
00:42 1004 29.65 834 24.63 5.8 42.4 49 -4.2 24.4 -91.1 -3.587
00:43 1004 29.65 833 24.6 5.8 42.4 49 -4 24.8 -91.1 -3.587
00:44 1004 29.65 833 24.6 5.7 42.3 49 -4.3 24.3 -91.1 -3.587
00:45 1004 29.65 834 24.63 5.7 42.2 50 -4 24.8 -91.1 -3.587
00:46 1004 29.65 834 24.63 5.6 42.2 50 -4 24.8 -91.1 -3.587
00:47 1004 29.65 834 24.63 5.6 42 49 -4.2 24.4 -91.1 -3.587
00:48 1004 29.65 833 24.6 5.6 42.1 49 -4.2 24.4 -91.1 -3.587
00:49 1004 29.65 833 24.6 5.7 42.2 48 -4.6 23.7 -91.1 -3.587
00:50 1004 29.65 834 24.63 5.8 42.4 49 -4.2 24.5 -91.1 -3.587
00:51 1004 29.65 834 24.63 5.8 42.4 48 -4.3 24.3 -91.1 -3.587
00:52 1004 29.65 834 24.63 5.8 42.4 48 -4.3 24.2 -91.1 -3.587
00:53 1004 29.65 834 24.63 5.8 42.4 49 -4.2 24.5 -91.1 -3.587
00:54 1004 29.65 834 24.63 5.8 42.4 48 -4.4 24.2 -91.1 -3.587
00:55 1004 29.65 834 24.63 5.8 42.4 49 -4.2 24.4 -91.1 -3.587
00:56 1004 29.65 834 24.63 5.8 42.4 49 -4.1 24.6 -91.1 -3.587
00:57 1005 29.68 834 24.63 5.7 42.3 50 -4 24.8 -91.1 -3.587
00:58 1004 29.65 834 24.63 5.7 42.2 50 -4 24.9 -91.1 -3.587
00:59 1005 29.68 834 24.63 5.7 42.2 49 -4.3 24.3 -91.1 -3.587
01:00 1004 29.65 834 24.63 5.7 42.2 50 -4.1 24.7 -91.1 -3.587
01:01 1004 29.65 834 24.63 5.6 42.1 49 -4.2 24.4 -91.1 -3.587
01:02 1005 29.68 834 24.63 5.7 42.2 50 -4.1 24.7 -91.1 -3.587
01:03 1004 29.65 834 24.63 5.6 42.1 50 -4 24.7 -91.1 -3.587
01:04 1005 29.68 834 24.63 5.6 42 49 -4.4 24.1 -91.1 -3.587
01:05 1004 29.65 834 24.63 5.6 42 49 -4.3 24.2 -91.1 -3.587
01:06 1005 29.68 834 24.63 5.5 42 50 -4.1 24.5 -91.1 -3.587
01:07 1004 29.65 834 24.63 5.5 41.9 50 -4.1 24.6 -91.1 -3.587
01:08 1005 29.68 834 24.63 5.5 41.9 50 -4 24.8 -91.1 -3.587
01:09 1005 29.68 834 24.63 5.4 41.7 51 -4 24.9 -91.1 -3.587
01:10 1005 29.68 834 24.63 5.4 41.7 50 -4.2 24.5 -91.1 -3.587
01:11 1005 29.68 834 24.63 5.5 41.8 50 -4.1 24.6 -91.1 -3.587
01:12 1005 29.68 834 24.63 5.4 41.8 50 -4.2 24.5 -91.1 -3.587
01:13 1005 29.68 834 24.63 5.4 41.7 50 -4.1 24.7 -91.1 -3.587
01:14 1005 29.68 834 24.63 5.3 41.6 50 -4.3 24.2 -91.1 -3.587
01:15 1005 29.68 834 24.63 5.4 41.7 51 -4 24.8 -91.1 -3.587
01:16 1005 29.68 834 24.63 5.4 41.7 49 -4.4 24.1 -91.1 -3.587
01:17 1005 29.68 834 24.63 5.4 41.8 49 -4.4 24.1 -91.1 -3.587
01:18 1005 29.68 834 24.63 5.5 41.8 50 -4.2 24.4 -91.1 -3.587
01:19 1005 29.68 834 24.63 5.5 41.9 49 -4.4 24.2 -91.1 -3.587
01:20 1005 29.68 834 24.63 5.5 41.9 50 -4.2 24.4 -91.1 -3.587
01:21 1005 29.68 834 24.63 5.5 41.8 50 -4.1 24.6 -91.1 -3.587
01:22 1005 29.68 834 24.63 5.3 41.6 50 -4.3 24.3 -91.1 -3.587
01:23 1005 29.68 834 24.63 5.3 41.6 50 -4.2 24.4 -91.1 -3.587
01:24 1005 29.68 834 24.63 5.3 41.6 50 -4.3 24.2 -91.1 -3.587
01:25 1005 29.68 834 24.63 5.3 41.6 51 -4 24.9 -91.1 -3.587
01:26 1005 29.68 834 24.63 5.2 41.4 50 -4.4 24.1 -91.1 -3.587
01:27 1005 29.68 834 24.63 5.2 41.4 50 -4.4 24 -91.1 -3.587
01:28 1005 29.68 834 24.63 5.3 41.5 49 -4.4 24 -91.1 -3.587
01:29 1005 29.68 834 24.63 5.4 41.6 50 -4.2 24.5 -91.1 -3.587
01:30 1005 29.68 834 24.63 5.4 41.7 50 -4.3 24.3 -91.1 -3.587
01:31 1005 29.68 834 24.63 5.4 41.7 48 -4.6 23.7 -91.1 -3.587
01:32 1005 29.68 834 24.63 5.5 41.8 50 -4.2 24.5 -91.1 -3.587
01:33 1005 29.68 834 24.63 5.4 41.7 49 -4.5 24 -91 -3.583
01:34 1005 29.68 834 24.63 5.4 41.7 50 -4.2 24.4 -91 -3.583
01:35 1005 29.68 834 24.63 5.4 41.7 50 -4.2 24.4 -91 -3.583
01:36 1005 29.68 834 24.63 5.4 41.7 49 -4.6 23.7 -91 -3.583
01:37 1005 29.68 834 24.63 5.5 41.8 48 -4.6 23.8 -91 -3.583
01:38 1005 29.68 834 24.63 5.5 41.9 49 -4.3 24.2 -91.1 -3.587
01:39 1005 29.68 834 24.63 5.5 41.9 48 -4.5 23.8 -91.1 -3.587
01:40 1005 29.68 834 24.63 5.5 41.9 48 -4.6 23.8 -91.1 -3.587
01:41 1005 29.68 834 24.63 5.5 42 49 -4.4 24 -91.1 -3.587
01:42 1005 29.68 834 24.63 5.5 42 48 -4.6 23.7 -91.1 -3.587
01:43 1005 29.68 834 24.63 5.5 41.9 48 -4.7 23.6 -91.1 -3.587
01:44 1005 29.68 834 24.63 5.6 42.1 48 -4.5 24 -91.1 -3.587
01:45 1005 29.68 834 24.63 5.6 42.1 49 -4.4 24.1 -91.1 -3.587
01:46 1005 29.68 834 24.63 5.5 41.9 49 -4.4 24.2 -91.1 -3.587
01:47 1005 29.68 834 24.63 5.5 41.9 49 -4.3 24.3 -91 -3.583
01:48 1005 29.68 834 24.63 5.5 41.9 49 -4.5 23.9 -91 -3.583
01:49 1005 29.68 834 24.63 5.5 41.8 50 -4.1 24.6 -91 -3.583
01:50 1005 29.68 834 24.63 5.4 41.7 50 -4.2 24.5 -91 -3.583
01:51 1005 29.68 834 24.63 5.3 41.5 49 -4.6 23.7 -91 -3.583
01:52 1005 29.68 834 24.63 5.4 41.6 49 -4.4 24.1 -91 -3.583
01:53 1005 29.68 834 24.63 5.3 41.6 49 -4.6 23.7 -91 -3.583
01:54 1005 29.68 834 24.63 5.4 41.7 49 -4.5 23.8 -91 -3.583
01:55 1005 29.68 834 24.63 5.5 41.9 48 -4.6 23.7 -91.1 -3.587
01:56 1005 29.68 834 24.63 5.6 42 48 -4.5 23.8 -91.1 -3.587
01:57 1005 29.68 834 24.63 5.6 42 48 -4.5 23.9 -91 -3.583
01:58 1005 29.68 834 24.63 5.6 42 49 -4.2 24.4 -91 -3.583
01:59 1005 29.68 834 24.63 5.5 41.8 48 -4.6 23.7 -91 -3.583
02:00 1005 29.68 834 24.63 5.5 41.9 48 -4.6 23.7 -91 -3.583
02:01 1005 29.68 834 24.63 5.5 41.9 49 -4.5 24 -91 -3.583
02:02 1005 29.68 834 24.63 5.5 42 47 -4.7 23.5 -91 -3.583
02:03 1005 29.68 834 24.63 5.6 42.1 48 -4.5 23.8 -91 -3.583
02:04 1005 29.68 834 24.63 5.6 42.1 47 -4.7 23.5 -91 -3.583
02:05 1005 29.68 834 24.63 5.7 42.2 48 -4.6 23.7 -91 -3.583
02:06 1005 29.68 834 24.63 5.7 42.3 47 -4.6 23.7 -91 -3.583
02:07 1005 29.68 834 24.63 5.7 42.3 48 -4.5 23.9 -91 -3.583
02:08 1005 29.68 834 24.63 5.7 42.3 47 -4.6 23.6 -91 -3.583
02:09 1005 29.68 834 24.63 5.7 42.2 48 -4.5 23.8 -91 -3.583
02:10 1005 29.68 834 24.63 5.5 42 49 -4.4 24 -91 -3.583
02:11 1005 29.68 834 24.63 5.5 41.9 49 -4.5 23.9 -91 -3.583
02:12 1005 29.68 834 24.63 5.4 41.8 49 -4.4 24.1 -91 -3.583
02:13 1005 29.68 834 24.63 5.4 41.8 49 -4.3 24.2 -91 -3.583
02:14 1005 29.68 834 24.63 5.4 41.8 49 -4.4 24 -91 -3.583
02:15 1005 29.68 834 24.63 5.5 41.8 48 -4.6 23.7 -91 -3.583
02:16 1005 29.68 834 24.63 5.4 41.8 48 -4.7 23.6 -91 -3.583
02:17 1005 29.68 834 24.63 5.5 41.8 49 -4.5 23.9 -91 -3.583
02:18 1005 29.68 834 24.63 5.4 41.8 48 -4.6 23.7 -91 -3.583
02:19 1005 29.68 834 24.63 5.5 41.9 48 -4.6 23.8 -91 -3.583
02:20 1005 29.68 834 24.63 5.5 41.9 49 -4.3 24.2 -91 -3.583
02:21 1005 29.68 834 24.63 5.4 41.8 49 -4.3 24.2 -91 -3.583
02:22 1005 29.68 834 24.63 5.3 41.6 49 -4.4 24 -90.9 -3.579
02:23 1005 29.68 834 24.63 5.1 41.2 52 -4 24.8 -90.8 -3.575
02:24 1005 29.68 835 24.66 4.1 39.4 56 -3.8 25.2 -90.8 -3.575
02:25 1005 29.68 835 24.66 3.1 37.6 60 -4 24.8 -90.8 -3.575
02:26 1005 29.68 835 24.66 2.4 36.3 63 -4 24.8 -90.7 -3.571
02:27 1005 29.68 835 24.66 1.9 35.3 64 -4.2 24.5 -90.7 -3.571
02:28 1006 29.71 835 24.66 1.5 34.6 66 -4.3 24.3 -90.7 -3.571
02:29 1006 29.71 835 24.66 1.2 34.1 67 -4.4 24.1 -90.7 -3.571
02:30 1006 29.71 835 24.66 0.9 33.7 66 -4.7 23.5 -90.7 -3.571
02:31 1006 29.71 835 24.66 0.8 33.5 67 -4.7 23.5 -90.7 -3.571
02:32 1006 29.71 835 24.66 0.7 33.2 67 -4.8 23.4 -90.7 -3.571
02:33 1006 29.71 835 24.66 0.5 32.8 69 -4.6 23.6 -90.7 -3.571
02:34 1006 29.71 835 24.66 0.3 32.5 68 -4.9 23.2 -90.8 -3.575
02:35 1006 29.71 835 24.66 0.2 32.4 68 -4.9 23.1 -90.8 -3.575
02:36 1006 29.71 835 24.66 0.3 32.6 68 -5 23 -90.8 -3.575
02:37 1006 29.71 835 24.66 0.4 32.7 68 -4.8 23.4 -90.8 -3.575
02:38 1006 29.71 835 24.66 0.4 32.7 68 -4.8 23.3 -90.8 -3.575
02:39 1006 29.71 835 24.66 0.4 32.8 68 -4.7 23.5 -90.9 -3.579
02:40 1006 29.71 835 24.66 0.4 32.7 67 -5 23.1 -90.9 -3.579
02:41 1006 29.71 835 24.66 0.3 32.6 68 -4.9 23.3 -90.9 -3.579
02:42 1006 29.71 835 24.66 0.3 32.5 70 -4.5 23.8 -90.9 -3.579
02:43 1006 29.71 835 24.66 0.2 32.3 70 -4.7 23.5 -90.9 -3.579
02:44 1006 29.71 835 24.66 0.1 32.2 69 -4.9 23.1 -90.9 -3.579
02:45 1006 29.71 835 24.66 0.3 32.5 68 -5 23.1 -90.9 -3.579
02:46 1006 29.71 835 24.66 0.4 32.8 68 -4.8 23.3 -91 -3.583
02:47 1006 29.71 835 24.66 0.5 32.8 66 -5.1 22.8 -91 -3.583
02:48 1006 29.71 835 24.66 0.6 33 66 -5 23.1 -91 -3.583
02:49 1006 29.71 835 24.66 0.7 33.3 67 -4.7 23.6 -91 -3.583
02:50 1006 29.71 835 24.66 0.7 33.2 68 -4.6 23.6 -91 -3.583
02:51 1006 29.71 835 24.66 0.6 33.1 68 -4.7 23.5 -91 -3.583
02:52 1006 29.71 835 24.66 0.5 32.9 66 -5 22.9 -91 -3.583
02:53 1006 29.71 835 24.66 0.4 32.8 69 -4.7 23.6 -91 -3.583
02:54 1006 29.71 835 24.66 0.1 32.1 71 -4.7 23.6 -91 -3.583
02:55 1006 29.71 836 24.69 -0.3 31.5 72 -4.7 23.5 -91 -3.583
02:56 1006 29.71 836 24.69 -0.7 30.8 74 -4.7 23.5 -91.1 -3.587
02:57 1007 29.74 836 24.69 -1 30.2 74 -5.1 22.8 -91.1 -3.587
02:58 1007 29.74 836 24.69 -1.4 29.4 76 -5.1 22.8 -91.1 -3.587
02:59 1006 29.71 836 24.69 -1.7 29 76 -5.3 22.4 -91.1 -3.587
03:00 1006 29.71 836 24.69 -1.9 28.5 78 -5.4 22.4 -91.1 -3.587
03:01 1006 29.71 835 24.66 -2.1 28.3 78 -5.3 22.4 -91.1 -3.587
03:02 1006 29.71 836 24.69 -2.2 28.1 78 -5.5 22.2 -91.1 -3.587
03:03 1006 29.71 836 24.69 -2.2 28 79 -5.4 22.3 -91.1 -3.587
03:04 1006 29.71 836 24.69 -2.2 28 79 -5.4 22.3 -91.1 -3.587
03:05 1006 29.71 836 24.69 -2.2 28.1 79 -5.3 22.5 -91.1 -3.587
03:06 1006 29.71 836 24.69 -2.1 28.1 79 -5.3 22.4 -91.1 -3.587
03:07 1006 29.71 836 24.69 -2.2 28.1 78 -5.5 22.1 -91.1 -3.587
03:08 1006 29.71 836 24.69 -2.1 28.2 78 -5.5 22.1 -91.1 -3.587
03:09 1006 29.71 836 24.69 -2.1 28.2 78 -5.5 22.2 -91.1 -3.587
03:10 1006 29.71 836 24.69 -2.1 28.2 78 -5.4 22.3 -91.1 -3.587
03:11 1006 29.71 836 24.69 -2.1 28.1 78 -5.5 22.1 -91.1 -3.587
03:12 1007 29.74 836 24.69 -2.1 28.2 78 -5.5 22.1 -91.2 -3.591
03:13 1007 29.74 836 24.69 -2.2 28.1 78 -5.5 22.1 -91.2 -3.591
03:14 1007 29.74 836 24.69 -2.2 28.1 77 -5.7 21.7 -91.2 -3.591
03:15 1007 29.74 836 24.69 -2.2 28 77 -5.7 21.7 -91.2 -3.591
03:16 1007 29.74 836 24.69 -2.3 27.9 76 -5.9 21.4 -91.2 -3.591
03:17 1007 29.74 836 24.69 -2.4 27.7 76 -6 21.1 -91.2 -3.591
03:18 1007 29.74 836 24.69 -2.5 27.5 77 -6.1 21.1 -91.2 -3.591
03:19 1007 29.74 836 24.69 -2.6 27.4 78 -6 21.3 -91.2 -3.591
03:20 1007 29.74 836 24.69 -2.6 27.3 76 -6.3 20.7 -91.3 -3.594
03:21 1007 29.74 836 24.69 -2.7 27.1 76 -6.4 20.4 -91.3 -3.594
03:22 1007 29.74 836 24.69 -2.7 27.1 75 -6.5 20.3 -91.3 -3.594
03:23 1007 29.74 836 24.69 -2.8 26.9 77 -6.3 20.6 -91.3 -3.594
03:24 1007 29.74 836 24.69 -2.9 26.8 76 -6.5 20.3 -91.3 -3.594
03:25 1007 29.74 836 24.69 -2.9 26.7 76 -6.7 20 -91.3 -3.594
03:26 1007 29.74 836 24.69 -3.1 26.5 76 -6.7 19.9 -91.3 -3.594
03:27 1007 29.74 836 24.69 -3.1 26.4 76 -6.8 19.7 -91.3 -3.594
03:28 1007 29.74 836 24.69 -3.2 26.2 77 -6.7 19.9 -91.3 -3.594
03:29 1007 29.74 836 24.69 -3.3 26.1 75 -7 19.3 -91.4 -3.598
03:30 1007 29.74 836 24.69 -3.4 25.9 75 -7.3 18.9 -91.4 -3.598
03:31 1007 29.74 836 24.69 -3.5 25.8 76 -7.1 19.3 -91.4 -3.598
03:32 1007 29.74 836 24.69 -3.5 25.6 77 -7.1 19.3 -91.4 -3.598
03:33 1007 29.74 836 24.69 -3.6 25.5 78 -7 19.5 -91.4 -3.598
03:34 1007 29.74 836 24.69 -3.6 25.5 77 -7.1 19.2 -91.4 -3.598
03:35 1007 29.74 836 24.69 -3.7 25.3 77 -7.2 19.1 -91.4 -3.598
03:36 1007 29.74 836 24.69 -3.8 25.2 77 -7.2 19 -91.5 -3.602
03:37 1007 29.74 836 24.69 -3.8 25.2 77 -7.2 19 -91.5 -3.602
03:38 1007 29.74 837 24.72 -3.8 25.2 78 -7.2 19.1 -91.5 -3.602
03:39 1007 29.74 837 24.72 -3.9 25.1 78 -7.2 19.1 -91.5 -3.602
03:40 1007 29.74 837 24.72 -3.9 25 78 -7.1 19.2 -91.5 -3.602
03:41 1007 29.74 837 24.72 -3.9 25 79 -7 19.3 -91.5 -3.602
03:42 1007 29.74 837 24.72 -3.9 25 78 -7.2 19 -91.5 -3.602
03:43 1007 29.74 837 24.72 -3.9 25 79 -7 19.4 -91.5 -3.602
03:44 1007 29.74 837 24.72 -3.9 25 79 -7.1 19.2 -91.5 -3.602
03:45 1007 29.74 837 24.72 -3.9 24.9 78 -7.2 19.1 -91.5 -3.602
03:46 1008 29.77 837 24.72 -3.9 24.9 79 -7.1 19.2 -91.6 -3.606
03:47 1008 29.77 837 24.72 -3.9 24.9 79 -7 19.4 -91.6 -3.606
03:48 1008 29.77 837 24.72 -3.9 24.9 78 -7.3 18.9 -91.6 -3.606
03:49 1008 29.77 837 24.72 -4 24.9 79 -7.1 19.2 -91.6 -3.606
03:50 1008 29.77 837 24.72 -3.9 24.9 79 -7 19.3 -91.6 -3.606
03:51 1008 29.77 837 24.72 -4 24.8 78 -7.3 18.9 -91.6 -3.606
03:52 1008 29.77 837 24.72 -4 24.8 78 -7.2 19 -91.6 -3.606
03:53 1008 29.77 837 24.72 -4 24.7 78 -7.3 18.8 -91.6 -3.606
03:54 1008 29.77 837 24.72 -4.1 24.6 79 -7.3 18.9 -91.6 -3.606
03:55 1008 29.77 837 24.72 -4.1 24.6 79 -7.3 18.9 -91.6 -3.606
03:56 1008 29.77 837 24.72 -4.2 24.5 79 -7.3 18.8 -91.6 -3.606
03:57 1008 29.77 837 24.72 -4.2 24.5 79 -7.4 18.8 -91.6 -3.606
03:58 1008 29.77 837 24.72 -4.2 24.4 78 -7.4 18.6 -91.6 -3.606
03:59 1008 29.77 837 24.72 -4.2 24.4 78 -7.5 18.6 -91.6 -3.606
04:00 1008 29.77 837 24.72 -4.2 24.4 79 -7.4 18.6 -91.6 -3.606
04:01 1008 29.77 837 24.72 -4.3 24.3 79 -7.4 18.6 -91.6 -3.606
04:02 1008 29.77 837 24.72 -4.3 24.2 79 -7.4 18.7 -91.6 -3.606
04:03 1008 29.77 837 24.72 -4.3 24.2 80 -7.3 18.8 -91.7 -3.61
04:04 1008 29.77 837 24.72 -4.3 24.2 81 -7.1 19.3 -91.7 -3.61
04:05 1008 29.77 837 24.72 -4.3 24.2 81 -7.1 19.1 -91.7 -3.61
04:06 1008 29.77 837 24.72 -4.3 24.2 80 -7.3 18.8 -91.7 -3.61
04:07 1008 29.77 837 24.72 -4.4 24.1 79 -7.5 18.4 -91.7 -3.61
04:08 1008 29.77 837 24.72 -4.5 24 81 -7.3 18.9 -91.7 -3.61
04:09 1008 29.77 838 24.75 -4.5 23.9 80 -7.5 18.6 -91.7 -3.61
04:10 1008 29.77 838 24.75 -4.6 23.7 80 -7.6 18.4 -91.7 -3.61
04:11 1009 29.8 838 24.75 -4.7 23.6 81 -7.5 18.6 -91.7 -3.61
04:12 1009 29.8 838 24.75 -4.8 23.4 81 -7.6 18.4 -91.7 -3.61
04:13 1009 29.8 838 24.75 -4.9 23.2 80 -7.8 18 -91.7 -3.61
04:14 1009 29.8 838 24.75 -5.1 22.9 81 -7.9 17.8 -91.7 -3.61
04:15 1009 29.8 838 24.75 -5.2 22.6 82 -7.9 17.8 -91.7 -3.61
04:16 1009 29.8 838 24.75 -5.4 22.4 80 -8.2 17.2 -91.8 -3.614
04:17 1009 29.8 838 24.75 -5.5 22 81 -8.2 17.2 -91.8 -3.614
04:18 1009 29.8 838 24.75 -5.7 21.8 82 -8.2 17.2 -91.8 -3.614
04:19 1009 29.8 838 24.75 -5.7 21.7 83 -8.3 17.1 -91.8 -3.614
04:20 1009 29.8 838 24.75 -5.8 21.5 83 -8.3 17 -91.8 -3.614
04:21 1009 29.8 838 24.75 -5.9 21.4 84 -8.3 17.1 -91.8 -3.614
04:22 1009 29.8 838 24.75 -5.9 21.4 84 -8.2 17.3 -91.8 -3.614
04:23 1009 29.8 838 24.75 -5.9 21.3 83 -8.4 16.9 -91.8 -3.614
04:24 1009 29.8 838 24.75 -6.1 21.1 83 -8.5 16.7 -91.8 -3.614
04:25 1009 29.8 838 24.75 -6.1 21 83 -8.5 16.7 -91.8 -3.614
04:26 1009 29.8 838 24.75 -6.2 20.9 83 -8.6 16.5 -91.8 -3.614
04:27 1009 29.8 838 24.75 -6.2 20.8 83 -8.7 16.4 -91.8 -3.614
04:28 1009 29.8 838 24.75 -6.2 20.8 83 -8.6 16.5 -91.8 -3.614
04:29 1009 29.8 838 24.75 -6.3 20.7 84 -8.6 16.6 -91.8 -3.614
04:30 1009 29.8 838 24.75 -6.3 20.7 84 -8.6 16.5 -91.9 -3.618
04:31 1009 29.8 838 24.75 -6.2 20.8 84 -8.6 16.6 -91.9 -3.618
04:32 1009 29.8 838 24.75 -6.2 20.8 84 -8.6 16.5 -91.8 -3.614
04:33 1009 29.8 838 24.75 -6.2 20.8 83 -8.6 16.4 -91.8 -3.614
04:34 1009 29.8 838 24.75 -6.2 20.8 83 -8.7 16.4 -91.8 -3.614
04:35 1009 29.8 838 24.75 -6.2 20.8 83 -8.6 16.5 -91.8 -3.614
04:36 1009 29.8 838 24.75 -6.2 20.9 83 -8.6 16.5 -91.8 -3.614
04:37 1009 29.8 838 24.75 -6.2 20.9 84 -8.5 16.7 -91.8 -3.614
04:38 1009 29.8 838 24.75 -6.2 20.9 84 -8.4 16.8 -91.8 -3.614
04:39 1009 29.8 838 24.75 -6.1 21 83 -8.5 16.7 -91.9 -3.618
04:40 1009 29.8 838 24.75 -6.1 21 82 -8.6 16.5 -91.9 -3.618
04:41 1009 29.8 838 24.75 -6.1 21.1 83 -8.5 16.7 -91.9 -3.618
04:42 1009 29.8 839 24.78 -6.1 21.1 84 -8.4 16.8 -91.9 -3.618
04:43 1009 29.8 839 24.78 -6.1 21 83 -8.5 16.6 -91.9 -3.618
04:44 1010 29.83 839 24.78 -6.1 21.1 84 -8.4 16.9 -91.9 -3.618
04:45 1010 29.83 839 24.78 -6 21.2 84 -8.3 17.1 -91.9 -3.618
04:46 1010 29.83 839 24.78 -6 21.3 84 -8.3 17.1 -91.9 -3.618
04:47 1010 29.83 839 24.78 -5.9 21.4 84 -8.2 17.2 -91.9 -3.618
04:48 1010 29.83 839 24.78 -5.8 21.5 85 -8 17.6 -91.9 -3.618
04:49 1010 29.83 839 24.78 -5.7 21.7 86 -7.7 18.1 -91.9 -3.618
04:50 1010 29.83 839 24.78 -5.6 22 86 -7.6 18.3 -91.9 -3.618
04:51 1010 29.83 839 24.78 -5.4 22.2 85 -7.6 18.3 -91.9 -3.618
04:52 1010 29.83 839 24.78 -5.3 22.4 85 -7.5 18.4 -91.9 -3.618
04:53 1010 29.83 839 24.78 -5.1 22.8 84 -7.4 18.6 -91.9 -3.618
04:54 1010 29.83 839 24.78 -5 23 81 -7.8 18 -91.9 -3.618
04:55 1010 29.83 839 24.78 -4.9 23.2 80 -7.8 18 -91.9 -3.618
04:56 1010 29.83 839 24.78 -4.8 23.4 83 -7.3 18.9 -91.9 -3.618
04:57 1010 29.83 839 24.78 -4.7 23.6 83 -7.2 19.1 -91.9 -3.618
04:58 1010 29.83 839 24.78 -4.5 23.8 83 -7.1 19.3 -91.9 -3.618
04:59 1010 29.83 839 24.78 -4.4 24 82 -7.1 19.2 -91.9 -3.618
05:00 1010 29.83 839 24.78 -4.4 24.2 81 -7.2 19.1 -91.9 -3.618
05:01 1010 29.83 839 24.78 -4.3 24.4 80 -7.1 19.2 -91.9 -3.618
05:02 1010 29.83 839 24.78 -4.2 24.5 81 -7 19.3 -91.9 -3.618
05:03 1010 29.83 839 24.78 -4.2 24.5 80 -7.2 19.1 -91.9 -3.618
05:04 1010 29.83 839 24.78 -4.2 24.4 80 -7.2 19.1 -91.9 -3.618
05:05 1010 29.83 839 24.78 -4.2 24.4 80 -7.1 19.2 -91.9 -3.618
05:06 1010 29.83 839 24.78 -4.3 24.4 80 -7.2 19.1 -91.9 -3.618
05:07 1010 29.83 839 24.78 -4.3 24.3 81 -7.1 19.2 -91.8 -3.614
05:08 1010 29.83 839 24.78 -4.3 24.2 81 -7.1 19.2 -91.8 -3.614
05:09 1010 29.83 839 24.78 -4.3 24.3 82 -6.9 19.5 -91.8 -3.614
05:10 1010 29.83 839 24.78 -4.2 24.4 82 -6.8 19.8 -91.8 -3.614
05:11 1010 29.83 839 24.78 -4 24.8 82 -6.6 20.1 -91.8 -3.614
05:12 1010 29.83 839 24.78 -3.9 25 81 -6.6 20.1 -91.8 -3.614
05:13 1010 29.83 839 24.78 -3.8 25.1 82 -6.5 20.3 -91.8 -3.614
05:14 1010 29.83 839 24.78 -3.7 25.4 82 -6.3 20.7 -91.8 -3.614
05:15 1010 29.83 839 24.78 -3.6 25.6 81 -6.3 20.7 -91.8 -3.614
05:16 1010 29.83 839 24.78 -3.5 25.7 82 -6.1 20.9 -91.8 -3.614
05:17 1010 29.83 839 24.78 -3.4 25.8 82 -6.1 21 -91.8 -3.614
05:18 1010 29.83 839 24.78 -3.3 26.1 82 -5.9 21.3 -91.8 -3.614
05:19 1010 29.83 839 24.78 -3.2 26.2 81 -6 21.2 -91.8 -3.614
05:20 1010 29.83 839 24.78 -3.2 26.3 82 -5.9 21.5 -91.8 -3.614
05:21 1010 29.83 839 24.78 -3.2 26.3 81 -6 21.1 -91.8 -3.614
05:22 1010 29.83 839 24.78 -3.2 26.3 81 -6 21.2 -91.8 -3.614
05:23 1010 29.83 839 24.78 -3.2 26.3 81 -5.9 21.4 -91.8 -3.614
05:24 1010 29.83 839 24.78 -3.2 26.3 82 -5.8 21.6 -91.8 -3.614
05:25 1010 29.83 839 24.78 -3.1 26.3 83 -5.7 21.8 -91.8 -3.614
05:26 1010 29.83 839 24.78 -3.1 26.4 83 -5.6 21.9 -91.8 -3.614
05:27 1010 29.83 839 24.78 -3 26.5 83 -5.6 22 -91.8 -3.614
05:28 1010 29.83 839 24.78 -3 26.6 84 -5.4 22.3 -91.8 -3.614
05:29 1010 29.83 839 24.78 -2.9 26.7 84 -5.3 22.5 -91.7 -3.61
05:30 1010 29.83 839 24.78 -2.9 26.8 85 -5.2 22.7 -91.7 -3.61
05:31 1010 29.83 839 24.78 -2.9 26.8 83 -5.3 22.4 -91.7 -3.61
05:32 1010 29.83 839 24.78 -2.8 27 82 -5.4 22.3 -91.7 -3.61
05:33 1010 29.83 839 24.78 -2.8 27 82 -5.5 22.1 -91.7 -3.61
05:34 1010 29.83 839 24.78 -2.8 27 82 -5.5 22.2 -91.7 -3.61
05:35 1010 29.83 839 24.78 -2.7 27.1 81 -5.5 22.2 -91.7 -3.61
05:36 1010 29.83 839 24.78 -2.7 27.1 81 -5.5 22.2 -91.7 -3.61
05:37 1010 29.83 839 24.78 -2.7 27.2 82 -5.4 22.3 -91.6 -3.606
05:38 1010 29.83 839 24.78 -2.7 27.1 82 -5.3 22.4 -91.7 -3.61
05:39 1010 29.83 839 24.78 -2.7 27.1 82 -5.3 22.5 -91.6 -3.606
05:40 1010 29.83 839 24.78 -2.7 27.2 83 -5.2 22.6 -91.7 -3.61
05:41 1010 29.83 839 24.78 -2.6 27.3 83 -5.1 22.8 -91.7 -3.61
05:42 1010 29.83 839 24.78 -2.5 27.5 83 -4.9 23.1 -91.7 -3.61
05:43 1010 29.83 839 24.78 -2.5 27.5 83 -4.9 23.1 -91.7 -3.61
05:44 1010 29.83 839 24.78 -2.4 27.7 83 -4.9 23.2 -91.7 -3.61
05:45 1010 29.83 839 24.78 -2.4 27.8 83 -4.9 23.3 -91.7 -3.61
05:46 1010 29.83 839 24.78 -2.3 27.9 83 -4.7 23.5 -91.7 -3.61
05:47 1010 29.83 839 24.78 -2.2 28.1 83 -4.6 23.6 -91.7 -3.61
05:48 1010 29.83 839 24.78 -2.1 28.2 84 -4.5 23.8 -91.7 -3.61
05:49 1010 29.83 839 24.78 -2.1 28.2 84 -4.4 24 -91.7 -3.61
05:50 1010 29.83 839 24.78 -2.1 28.3 85 -4.3 24.2 -91.7 -3.61
05:51 1010 29.83 839 24.78 -2.1 28.2 85 -4.3 24.3 -91.7 -3.61
05:52 1010 29.83 839 24.78 -2.1 28.1 85 -4.3 24.3 -91.7 -3.61
05:53 1010 29.83 839 24.78 -2.2 28.1 86 -4.2 24.4 -91.6 -3.606
05:54 1010 29.83 839 24.78 -2.2 28 86 -4.2 24.4 -91.6 -3.606
05:55 1010 29.83 839 24.78 -2.3 27.9 86 -4.2 24.4 -91.6 -3.606
05:56 1010 29.83 839 24.78 -2.4 27.7 87 -4.3 24.3 -91.6 -3.606
05:57 1010 29.83 839 24.78 -2.4 27.7 87 -4.3 24.3 -91.6 -3.606
05:58 1010 29.83 839 24.78 -2.5 27.6 87 -4.3 24.3 -91.6 -3.606
05:59 1010 29.83 839 24.78 -2.6 27.4 87 -4.4 24.1 -91.6 -3.606
06:00 1010 29.83 839 24.78 -2.6 27.3 88 -4.4 24.1 -91.6 -3.606
06:01 1010 29.83 840 24.81 -2.7 27.2 88 -4.4 24.2 -91.5 -3.602
06:02 1010 29.83 840 24.81 -2.7 27.1 89 -4.4 24.1 -91.5 -3.602
06:03 1010 29.83 840 24.81 -2.7 27.1 89 -4.3 24.3 -91.5 -3.602
06:04 1010 29.83 840 24.81 -2.7 27.2 89 -4.2 24.4 -91.5 -3.602
06:05 1010 29.83 840 24.81 -2.6 27.2 89 -4.2 24.5 -91.5 -3.602
06:06 1010 29.83 840 24.81 -2.6 27.4 90 -4 24.7 -91.5 -3.602
06:07 1010 29.83 840 24.81 -2.5 27.5 89 -4 24.8 -91.5 -3.602
06:08 1010 29.83 840 24.81 -2.4 27.7 89 -3.9 25 -91.5 -3.602
06:09 1010 29.83 840 24.81 -2.3 27.9 89 -3.9 25 -91.5 -3.602
06:10 1010 29.83 840 24.81 -2.2 28 89 -3.9 25.1 -91.5 -3.602
06:11 1010 29.83 840 24.81 -2.2 28 88 -3.9 25 -91.5 -3.602
06:12 1010 29.83 840 24.81 -2.2 28.1 88 -3.8 25.1 -91.5 -3.602
06:13 1010 29.83 840 24.81 -2.2 28.1 88 -3.9 25 -91.5 -3.602
06:14 1010 29.83 840 24.81 -2.1 28.1 88 -3.9 25 -91.5 -3.602
06:15 1010 29.83 840 24.81 -2.1 28.1 88 -3.9 25 -91.5 -3.602
06:16 1010 29.83 840 24.81 -2.2 28.1 88 -3.9 24.9 -91.5 -3.602
06:17 1011 29.85 840 24.81 -2.1 28.2 87 -4 24.8 -91.5 -3.602
06:18 1011 29.85 840 24.81 -2.2 28.1 87 -4.1 24.6 -91.5 -3.602
06:19 1011 29.85 840 24.81 -2.4 27.8 82 -5.1 22.9 -91.5 -3.602
06:20 1011 29.85 840 24.81 -2.9 26.9 81 -5.7 21.8 -91.5 -3.602
06:21 1011 29.85 840 24.81 -3.3 26 82 -6 21.3 -91.5 -3.602
06:22 1011 29.85 840 24.81 -3.7 25.3 83 -6.2 20.8 -91.5 -3.602
06:23 1011 29.85 840 24.81 -4.1 24.7 84 -6.4 20.4 -91.5 -3.602
06:24 1011 29.85 840 24.81 -4.3 24.3 83 -6.7 20 -91.5 -3.602
06:25 1011 29.85 840 24.81 -4.5 23.9 84 -6.8 19.7 -91.5 -3.602
06:26 1011 29.85 840 24.81 -4.8 23.4 84 -7.1 19.2 -91.6 -3.606
06:27 1011 29.85 840 24.81 -4.9 23.1 84 -7.2 19 -91.6 -3.606
06:28 1011 29.85 840 24.81 -5.1 22.8 85 -7.3 18.9 -91.6 -3.606
06:29 1011 29.85 840 24.81 -5.2 22.6 85 -7.3 18.8 -91.6 -3.606
06:30 1011 29.85 840 24.81 -5.3 22.5 85 -7.4 18.8 -91.6 -3.606
06:31 1011 29.85 840 24.81 -5.3 22.4 85 -7.5 18.5 -91.6 -3.606
06:32 1011 29.85 840 24.81 -5.4 22.3 85 -7.5 18.5 -91.6 -3.606
06:33 1011 29.85 840 24.81 -5.4 22.2 86 -7.4 18.6 -91.6 -3.606
06:34 1011 29.85 840 24.81 -5.4 22.2 86 -7.4 18.6 -91.6 -3.606
06:35 1011 29.85 840 24.81 -5.5 22.1 86 -7.5 18.5 -91.7 -3.61
06:36 1011 29.85 840 24.81 -5.5 22.1 86 -7.5 18.5 -91.7 -3.61
06:37 1011 29.85 840 24.81 -5.5 22.1 86 -7.5 18.5 -91.7 -3.61
06:38 1011 29.85 840 24.81 -5.5 22.1 86 -7.5 18.4 -91.7 -3.61
06:39 1011 29.85 840 24.81 -5.5 22 86 -7.6 18.4 -91.7 -3.61
06:40 1011 29.85 840 24.81 -5.6 21.9 86 -7.6 18.3 -91.7 -3.61
06:41 1011 29.85 840 24.81 -5.6 21.9 86 -7.6 18.3 -91.7 -3.61
06:42 1011 29.85 840 24.81 -5.6 21.9 86 -7.6 18.2 -91.7 -3.61
06:43 1011 29.85 840 24.81 -5.6 21.9 86 -7.6 18.3 -91.7 -3.61
06:44 1011 29.85 840 24.81 -5.6 21.9 86 -7.6 18.2 -91.7 -3.61
06:45 1011 29.85 840 24.81 -5.7 21.8 86 -7.6 18.2 -91.7 -3.61
06:46 1011 29.85 840 24.81 -5.7 21.8 86 -7.7 18.2 -91.7 -3.61
06:47 1011 29.85 840 24.81 -5.7 21.8 86 -7.6 18.2 -91.7 -3.61
06:48 1011 29.85 840 24.81 -5.7 21.7 86 -7.7 18.2 -91.7 -3.61
06:49 1011 29.85 840 24.81 -5.8 21.6 86 -7.7 18.1 -91.7 -3.61
06:50 1011 29.85 840 24.81 -5.8 21.6 86 -7.7 18.1 -91.7 -3.61
06:51 1011 29.85 840 24.81 -5.9 21.5 86 -7.8 18 -91.7 -3.61
06:52 1011 29.85 840 24.81 -5.9 21.4 86 -7.8 18 -91.7 -3.61
06:53 1011 29.85 840 24.81 -6 21.3 86 -7.9 17.8 -91.7 -3.61
06:54 1011 29.85 840 24.81 -6 21.2 86 -7.9 17.7 -91.7 -3.61
06:55 1011 29.85 840 24.81 -6.1 21.1 86 -8 17.7 -91.7 -3.61
06:56 1011 29.85 840 24.81 -6.1 21 86 -8.1 17.5 -91.7 -3.61
06:57 1011 29.85 840 24.81 -6.2 20.8 86 -8.2 17.3 -91.7 -3.61
06:58 1011 29.85 840 24.81 -6.3 20.7 86 -8.3 17.1 -91.7 -3.61
06:59 1011 29.85 840 24.81 -6.4 20.5 86 -8.3 17 -91.7 -3.61
07:00 1011 29.85 840 24.81 -6.5 20.2 86 -8.5 16.8 -91.7 -3.61
07:01 1011 29.85 841 24.83 -6.7 20 87 -8.5 16.6 -91.7 -3.61
07:02 1011 29.85 841 24.83 -6.9 19.6 88 -8.6 16.6 -91.7 -3.61
07:03 1011 29.85 841 24.83 -7.1 19.3 89 -8.6 16.6 -91.7 -3.61
07:04 1011 29.85 840 24.81 -7.1 19.2 90 -8.6 16.6 -91.8 -3.614
07:05 1011 29.85 840 24.81 -7.3 19 90 -8.7 16.4 -91.8 -3.614
07:06 1011 29.85 841 24.83 -7.3 18.8 89 -8.8 16.2 -91.8 -3.614
07:07 1011 29.85 841 24.83 -7.5 18.5 89 -9 15.8 -91.8 -3.614
07:08 1011 29.85 841 24.83 -7.6 18.2 89 -9.1 15.6 -91.8 -3.614
07:09 1011 29.85 841 24.83 -7.8 18 90 -9.1 15.6 -91.8 -3.614
07:10 1011 29.85 841 24.83 -7.9 17.8 90 -9.3 15.3 -91.8 -3.614
07:11 1011 29.85 841 24.83 -8 17.5 90 -9.4 15.1 -91.8 -3.614
07:12 1011 29.85 841 24.83 -8.2 17.3 90 -9.5 14.9 -91.8 -3.614
07:13 1011 29.85 841 24.83 -8.3 17.1 90 -9.6 14.8 -91.8 -3.614
07:14 1012 29.88 841 24.83 -8.3 17 91 -9.6 14.7 -91.9 -3.618
07:15 1012 29.88 841 24.83 -8.4 16.8 91 -9.7 14.6 -91.9 -3.618
07:16 1012 29.88 841 24.83 -8.5 16.7 91 -9.7 14.5 -91.9 -3.618
07:17 1012 29.88 841 24.83 -8.5 16.7 91 -9.7 14.6 -91.9 -3.618
07:18 1012 29.88 841 24.83 -8.5 16.6 92 -9.7 14.6 -91.9 -3.618
07:19 1011 29.85 841 24.83 -8.6 16.6 92 -9.7 14.6 -91.9 -3.618
07:20 1012 29.88 841 24.83 -8.5 16.6 92 -9.6 14.8 -91.9 -3.618
07:21 1011 29.85 841 24.83 -8.5 16.6 93 -9.5 14.9 -91.9 -3.618
07:22 1011 29.85 841 24.83 -8.5 16.8 93 -9.4 15 -91.9 -3.618
07:23 1011 29.85 841 24.83 -8.5 16.8 93 -9.4 15.1 -91.9 -3.618
07:24 1011 29.85 841 24.83 -8.4 16.8 93 -9.4 15 -91.9 -3.618
07:25 1011 29.85 841 24.83 -8.4 16.8 93 -9.4 15 -91.9 -3.618
07:26 1011 29.85 841 24.83 -8.4 16.9 93 -9.3 15.2 -91.9 -3.618
07:27 1011 29.85 841 24.83 -8.4 16.9 93 -9.3 15.3 -91.9 -3.618
07:28 1011 29.85 841 24.83 -8.3 17 93 -9.2 15.4 -91.9 -3.618
07:29 1011 29.85 841 24.83 -8.3 17.1 93 -9.2 15.5 -91.9 -3.618
07:30 1011 29.85 841 24.83 -8.3 17.2 94 -9.1 15.6 -91.9 -3.618
07:31 1011 29.85 841 24.83 -8.2 17.3 94 -9 15.9 -91.9 -3.618
07:32 1011 29.85 841 24.83 -8.1 17.4 94 -8.9 16 -91.9 -3.618
07:33 1011 29.85 841 24.83 -8 17.6 94 -8.8 16.2 -91.9 -3.618
07:34 1011 29.85 841 24.83 -7.9 17.7 94 -8.7 16.3 -91.9 -3.618
07:35 1012 29.88 841 24.83 -7.8 17.9 94 -8.7 16.4 -91.9 -3.618
07:36 1012 29.88 841 24.83 -7.8 17.9 93 -8.7 16.3 -91.9 -3.618
07:37 1012 29.88 841 24.83 -7.8 17.9 93 -8.8 16.1 -91.9 -3.618
07:38 1012 29.88 841 24.83 -7.9 17.8 93 -8.9 16 -91.9 -3.618
07:39 1012 29.88 841 24.83 -7.9 17.8 92 -8.9 16 -92 -3.622
07:40 1012 29.88 841 24.83 -8 17.7 92 -9.1 15.7 -92 -3.622
07:41 1012 29.88 841 24.83 -8 17.5 92 -9.1 15.7 -92 -3.622
07:42 1012 29.88 841 24.83 -8.1 17.5 93 -9.1 15.7 -92 -3.622
07:43 1012 29.88 841 24.83 -8.1 17.4 92 -9.2 15.4 -92 -3.622
07:44 1012 29.88 841 24.83 -8.2 17.3 91 -9.4 15.1 -92 -3.622
07:45 1012 29.88 841 24.83 -8.3 17.1 91 -9.4 15 -92 -3.622
07:46 1012 29.88 841 24.83 -8.3 17 92 -9.5 15 -92 -3.622
07:47 1012 29.88 841 24.83 -8.4 16.9 92 -9.5 14.9 -92 -3.622
07:48 1012 29.88 841 24.83 -8.4 16.8 91 -9.6 14.7 -92 -3.622
07:49 1012 29.88 841 24.83 -8.5 16.7 91 -9.7 14.5 -92 -3.622
07:50 1012 29.88 841 24.83 -8.6 16.6 91 -9.8 14.4 -92.1 -3.626
07:51 1012 29.88 841 24.83 -8.6 16.4 91 -9.9 14.3 -92.1 -3.626
07:52 1012 29.88 841 24.83 -8.7 16.4 91 -9.9 14.3 -92.1 -3.626
07:53 1012 29.88 841 24.83 -8.7 16.3 91 -9.9 14.2 -92.1 -3.626
07:54 1012 29.88 841 24.83 -8.7 16.3 91 -9.9 14.2 -92.1 -3.626
07:55 1012 29.88 841 24.83 -8.7 16.3 92 -9.8 14.3 -92.1 -3.626
07:56 1012 29.88 841 24.83 -8.7 16.3 92 -9.8 14.4 -92.1 -3.626
07:57 1012 29.88 841 24.83 -8.7 16.4 92 -9.8 14.4 -92.1 -3.626
07:58 1012 29.88 841 24.83 -8.7 16.4 92 -9.7 14.5 -92.1 -3.626
07:59 1012 29.88 841 24.83 -8.6 16.5 92 -9.7 14.6 -92.1 -3.626
08:00 1012 29.88 841 24.83 -8.6 16.6 92 -9.6 14.6 -92.1 -3.626
08:01 1012 29.88 841 24.83 -8.5 16.7 92 -9.6 14.7 -92.1 -3.626
08:02 1012 29.88 841 24.83 -8.5 16.7 92 -9.6 14.8 -92.1 -3.626
08:03 1012 29.88 841 24.83 -8.5 16.7 92 -9.6 14.8 -92.1 -3.626
08:04 1012 29.88 841 24.83 -8.5 16.8 92 -9.6 14.8 -92.2 -3.63
08:05 1012 29.88 841 24.83 -8.4 16.9 92 -9.5 14.8 -92.2 -3.63
08:06 1012 29.88 841 24.83 -8.4 16.9 92 -9.6 14.8 -92.2 -3.63
08:07 1012 29.88 841 24.83 -8.4 16.9 91 -9.5 14.8 -92.2 -3.63
08:08 1012 29.88 841 24.83 -8.3 17 91 -9.5 14.9 -92.2 -3.63
08:09 1012 29.88 841 24.83 -8.3 17 91 -9.5 14.9 -92.2 -3.63
08:10 1012 29.88 841 24.83 -8.3 17.1 91 -9.4 15 -92.2 -3.63
08:11 1012 29.88 841 24.83 -8.3 17.1 91 -9.5 15 -92.2 -3.63
08:12 1012 29.88 841 24.83 -8.2 17.3 91 -9.4 15.1 -92.2 -3.63
08:13 1012 29.88 841 24.83 -8.2 17.3 91 -9.4 15.1 -92.2 -3.63
08:14 1012 29.88 841 24.83 -8.1 17.4 92 -9.3 15.3 -92.2 -3.63
08:15 1012 29.88 841 24.83 -8.1 17.4 91 -9.3 15.3 -92.2 -3.63
08:16 1012 29.88 841 24.83 -8 17.5 90 -9.3 15.2 -92.2 -3.63
08:17 1012 29.88 841 24.83 -8 17.6 90 -9.3 15.2 -92.2 -3.63
08:18 1012 29.88 841 24.83 -8 17.6 90 -9.3 15.2 -92.2 -3.63
08:19 1012 29.88 841 24.83 -8 17.6 90 -9.3 15.2 -92.2 -3.63
08:20 1012 29.88 841 24.83 -8 17.7 90 -9.3 15.2 -92.2 -3.63
08:21 1012 29.88 841 24.83 -8 17.7 90 -9.3 15.2 -92.2 -3.63
08:22 1012 29.88 841 24.83 -8 17.7 90 -9.3 15.2 -92.2 -3.63
08:23 1012 29.88 841 24.83 -8 17.7 90 -9.4 15.2 -92.2 -3.63
08:24 1012 29.88 841 24.83 -7.9 17.8 90 -9.3 15.2 -92.2 -3.63
08:25 1012 29.88 841 24.83 -7.9 17.8 89 -9.4 15.1 -92.3 -3.634
08:26 1012 29.88 841 24.83 -7.9 17.8 89 -9.4 15.1 -92.3 -3.634
08:27 1012 29.88 841 24.83 -7.9 17.8 89 -9.4 15.2 -92.3 -3.634
08:28 1012 29.88 841 24.83 -7.8 17.9 89 -9.3 15.2 -92.3 -3.634
08:29 1012 29.88 841 24.83 -7.8 18 89 -9.2 15.4 -92.3 -3.634
08:30 1012 29.88 841 24.83 -7.8 18 89 -9.3 15.3 -92.3 -3.634
08:31 1012 29.88 841 24.83 -7.7 18.1 89 -9.3 15.3 -92.3 -3.634
08:32 1012 29.88 841 24.83 -7.7 18.1 89 -9.3 15.3 -92.3 -3.634
08:33 1012 29.88 841 24.83 -7.7 18.2 89 -9.2 15.4 -92.3 -3.634
08:34 1012 29.88 841 24.83 -7.6 18.3 89 -9.1 15.6 -92.3 -3.634
08:35 1012 29.88 841 24.83 -7.6 18.4 88 -9.2 15.5 -92.3 -3.634
08:36 1012 29.88 841 24.83 -7.5 18.4 88 -9.1 15.6 -92.3 -3.634
08:37 1012 29.88 841 24.83 -7.5 18.4 88 -9.2 15.5 -92.3 -3.634
08:38 1012 29.88 841 24.83 -7.5 18.5 88 -9.1 15.6 -92.3 -3.634
08:39 1012 29.88 841 24.83 -7.5 18.6 88 -9.1 15.6 -92.3 -3.634
08:40 1012 29.88 841 24.83 -7.5 18.6 88 -9.1 15.5 -92.3 -3.634
08:41 1012 29.88 841 24.83 -7.4 18.6 87 -9.2 15.5 -92.3 -3.634
08:42 1012 29.88 841 24.83 -7.4 18.7 88 -9.1 15.7 -92.3 -3.634
08:43 1012 29.88 841 24.83 -7.4 18.6 87 -9.2 15.4 -92.3 -3.634
08:44 1012 29.88 841 24.83 -7.5 18.5 87 -9.4 15.2 -92.3 -3.634
08:45 1012 29.88 841 24.83 -7.6 18.4 87 -9.4 15.1 -92.3 -3.634
08:46 1012 29.88 841 24.83 -7.6 18.2 87 -9.4 15.1 -92.3 -3.634
08:47 1012 29.88 841 24.83 -7.7 18.2 87 -9.4 15 -92.3 -3.634
08:48 1012 29.88 841 24.83 -7.7 18.2 87 -9.5 14.9 -92.3 -3.634
08:49 1012 29.88 841 24.83 -7.7 18.1 87 -9.5 15 -92.3 -3.634
08:50 1012 29.88 841 24.83 -7.7 18.1 88 -9.4 15 -92.3 -3.634
08:51 1012 29.88 841 24.83 -7.7 18.1 88 -9.4 15.1 -92.3 -3.634
08:52 1012 29.88 842 24.86 -7.7 18.2 88 -9.3 15.2 -92.3 -3.634
08:53 1012 29.88 842 24.86 -7.6 18.3 88 -9.3 15.2 -92.3 -3.634
08:54 1012 29.88 842 24.86 -7.7 18.2 88 -9.3 15.3 -92.3 -3.634
08:55 1012 29.88 842 24.86 -7.6 18.3 88 -9.3 15.2 -92.3 -3.634
08:56 1012 29.88 842 24.86 -7.7 18.2 88 -9.4 15.1 -92.3 -3.634
08:57 1012 29.88 842 24.86 -7.7 18.2 88 -9.3 15.2 -92.3 -3.634
08:58 1012 29.88 842 24.86 -7.7 18.2 87 -9.4 15 -92.3 -3.634
08:59 1012 29.88 842 24.86 -7.7 18.1 88 -9.4 15 -92.3 -3.634
09:00 1012 29.88 842 24.86 -7.8 18 88 -9.5 15 -92.3 -3.634
09:01 1012 29.88 842 24.86 -7.8 18 88 -9.4 15 -92.3 -3.634
09:02 1012 29.88 842 24.86 -7.8 18 89 -9.4 15.1 -92.3 -3.634
09:03 1012 29.88 842 24.86 -7.8 17.9 87 -9.6 14.7 -92.3 -3.634
09:04 1012 29.88 842 24.86 -7.9 17.8 87 -9.7 14.6 -92.3 -3.634
09:05 1012 29.88 842 24.86 -8 17.6 87 -9.9 14.3 -92.4 -3.638
09:06 1012 29.88 842 24.86 -8.1 17.4 87 -9.9 14.2 -92.4 -3.638
09:07 1012 29.88 842 24.86 -8.2 17.3 87 -9.9 14.2 -92.4 -3.638
09:08 1012 29.88 842 24.86 -8.2 17.3 88 -9.8 14.3 -92.4 -3.638
09:09 1012 29.88 842 24.86 -8.2 17.3 88 -9.8 14.4 -92.4 -3.638
09:10 1012 29.88 842 24.86 -8.1 17.4 89 -9.7 14.6 -92.4 -3.638
09:11 1013 29.91 842 24.86 -8 17.5 89 -9.6 14.7 -92.4 -3.638
09:12 1013 29.91 842 24.86 -8 17.6 88 -9.6 14.8 -92.4 -3.638
09:13 1013 29.91 842 24.86 -8 17.7 87 -9.7 14.6 -92.4 -3.638
09:14 1013 29.91 842 24.86 -8 17.7 87 -9.7 14.6 -92.4 -3.638
09:15 1013 29.91 842 24.86 -7.9 17.7 88 -9.6 14.7 -92.4 -3.638
09:16 1013 29.91 842 24.86 -7.9 17.8 88 -9.6 14.7 -92.4 -3.638
09:17 1013 29.91 842 24.86 -7.8 17.9 87 -9.7 14.6 -92.4 -3.638
09:18 1013 29.91 842 24.86 -7.8 17.9 87 -9.7 14.6 -92.4 -3.638
09:19 1013 29.91 842 24.86 -7.8 18 87 -9.6 14.7 -92.4 -3.638
09:20 1013 29.91 842 24.86 -7.8 18 87 -9.6 14.7 -92.4 -3.638
09:21 1013 29.91 842 24.86 -7.7 18.1 88 -9.4 15.1 -92.4 -3.638
09:22 1013 29.91 842 24.86 -7.6 18.3 87 -9.4 15.1 -92.4 -3.638
09:23 1013 29.91 842 24.86 -7.6 18.3 86 -9.6 14.8 -92.4 -3.638
09:24 1013 29.91 842 24.86 -7.6 18.3 87 -9.4 15.1 -92.4 -3.638
09:25 1013 29.91 842 24.86 -7.6 18.3 87 -9.4 15.1 -92.4 -3.638
09:26 1013 29.91 842 24.86 -7.6 18.3 88 -9.3 15.3 -92.4 -3.638
09:27 1013 29.91 842 24.86 -7.5 18.5 88 -9.2 15.5 -92.4 -3.638
09:28 1013 29.91 842 24.86 -7.5 18.6 88 -9 15.7 -92.4 -3.638
09:29 1013 29.91 842 24.86 -7.4 18.8 89 -8.9 16 -92.4 -3.638
09:30 1013 29.91 842 24.86 -7.3 18.9 88 -9 15.8 -92.4 -3.638
09:31 1013 29.91 842 24.86 -7.2 19 88 -8.8 16.1 -92.4 -3.638
09:32 1013 29.91 842 24.86 -7.2 19.1 88 -8.9 16 -92.4 -3.638
09:33 1013 29.91 842 24.86 -7.1 19.2 88 -8.8 16.2 -92.4 -3.638
09:34 1013 29.91 842 24.86 -7.1 19.3 88 -8.8 16.2 -92.4 -3.638
09:35 1013 29.91 842 24.86 -7 19.4 88 -8.7 16.3 -92.4 -3.638
09:36 1013 29.91 842 24.86 -7 19.5 88 -8.7 16.4 -92.4 -3.638
09:37 1013 29.91 842 24.86 -6.9 19.5 88 -8.7 16.4 -92.4 -3.638
09:38 1013 29.91 842 24.86 -6.9 19.6 88 -8.6 16.5 -92.4 -3.638
09:39 1013 29.91 842 24.86 -6.8 19.7 88 -8.5 16.7 -92.4 -3.638
09:40 1013 29.91 842 24.86 -6.8 19.8 87 -8.5 16.6 -92.4 -3.638
09:41 1013 29.91 842 24.86 -6.7 19.9 87 -8.5 16.7 -92.4 -3.638
09:42 1013 29.91 842 24.86 -6.6 20 87 -8.4 16.9 -92.4 -3.638
09:43 1013 29.91 842 24.86 -6.6 20.2 88 -8.3 17 -92.4 -3.638
09:44 1013 29.91 842 24.86 -6.5 20.3 87 -8.3 17 -92.4 -3.638
09:45 1013 29.91 842 24.86 -6.4 20.4 86 -8.4 16.9 -92.4 -3.638
09:46 1013 29.91 842 24.86 -6.4 20.4 85 -8.5 16.7 -92.4 -3.638
09:47 1013 29.91 842 24.86 -6.5 20.4 85 -8.5 16.6 -92.4 -3.638
09:48 1013 29.91 842 24.86 -6.5 20.3 86 -8.4 16.8 -92.4 -3.638
09:49 1013 29.91 842 24.86 -6.4 20.5 86 -8.4 16.9 -92.4 -3.638
09:50 1013 29.91 842 24.86 -6.4 20.6 86 -8.4 17 -92.4 -3.638
09:51 1013 29.91 842 24.86 -6.2 20.8 87 -8 17.6 -92.4 -3.638
09:52 1013 29.91 842 24.86 -6 21.2 87 -7.9 17.9 -92.4 -3.638
09:53 1013 29.91 842 24.86 -5.8 21.6 85 -8 17.7 -92.4 -3.638
09:54 1013 29.91 842 24.86 -5.7 21.7 83 -8.2 17.3 -92.4 -3.638
09:55 1013 29.91 842 24.86 -5.8 21.5 83 -8.3 17.1 -92.4 -3.638
09:56 1013 29.91 842 24.86 -5.9 21.3 84 -8.2 17.2 -92.4 -3.638
09:57 1013 29.91 842 24.86 -5.8 21.5 84 -8.2 17.3 -92.4 -3.638
09:58 1013 29.91 842 24.86 -5.7 21.8 84 -7.9 17.8 -92.4 -3.638
09:59 1013 29.91 842 24.86 -5.4 22.3 83 -7.8 18 -92.4 -3.638
10:00 1013 29.91 842 24.86 -5.1 22.8 81 -7.9 17.8 -92.4 -3.638
10:01 1013 29.91 842 24.86 -5 23.1 80 -7.8 17.9 -92.4 -3.638
10:02 1013 29.91 842 24.86 -4.8 23.3 79 -7.9 17.7 -92.4 -3.638
10:03 1013 29.91 842 24.86 -4.7 23.5 79 -7.8 18 -92.4 -3.638
10:04 1013 29.91 842 24.86 -4.8 23.4 80 -7.8 18 -92.4 -3.638
10:05 1013 29.91 842 24.86 -4.8 23.4 80 -7.8 18 -92.4 -3.638
10:06 1013 29.91 842 24.86 -4.8 23.4 80 -7.7 18.2 -92.4 -3.638
10:07 1013 29.91 842 24.86 -4.7 23.5 81 -7.4 18.6 -92.4 -3.638
10:08 1013 29.91 842 24.86 -4.5 23.9 79 -7.6 18.4 -92.4 -3.638
10:09 1013 29.91 842 24.86 -4.4 24.1 79 -7.5 18.6 -92.4 -3.638
10:10 1013 29.91 842 24.86 -4.3 24.3 79 -7.4 18.8 -92.4 -3.638
10:11 1013 29.91 842 24.86 -4.2 24.5 79 -7.4 18.8 -92.4 -3.638
10:12 1013 29.91 842 24.86 -4 24.8 78 -7.3 18.9 -92.4 -3.638
10:13 1013 29.91 842 24.86 -3.8 25.1 78 -7.1 19.2 -92.4 -3.638
10:14 1013 29.91 842 24.86 -3.6 25.5 77 -7.1 19.3 -92.4 -3.638
10:15 1013 29.91 842 24.86 -3.5 25.7 77 -6.9 19.5 -92.4 -3.638
10:16 1013 29.91 842 24.86 -3.3 26.1 76 -6.9 19.6 -92.4 -3.638
10:17 1013 29.91 842 24.86 -3.1 26.5 77 -6.6 20.1 -92.4 -3.638
10:18 1013 29.91 842 24.86 -2.9 26.8 74 -6.8 19.7 -92.4 -3.638
10:19 1013 29.91 842 24.86 -2.8 26.9 75 -6.6 20.1 -92.4 -3.638
10:20 1013 29.91 842 24.86 -2.7 27.2 74 -6.6 20.1 -92.4 -3.638
10:21 1013 29.91 842 24.86 -2.6 27.4 75 -6.5 20.4 -92.4 -3.638
10:22 1013 29.91 842 24.86 -2.5 27.6 74 -6.4 20.4 -92.4 -3.638
10:23 1013 29.91 842 24.86 -2.4 27.6 74 -6.5 20.2 -92.4 -3.638
10:24 1013 29.91 842 24.86 -2.5 27.5 74 -6.4 20.4 -92.4 -3.638
10:25 1013 29.91 842 24.86 -2.4 27.6 74 -6.4 20.5 -92.4 -3.638
10:26 1013 29.91 842 24.86 -2.4 27.7 76 -6.1 20.9 -92.3 -3.634
10:27 1013 29.91 842 24.86 -2.2 28 74 -6.2 20.8 -92.3 -3.634
10:28 1013 29.91 842 24.86 -2 28.5 74 -6 21.3 -92.3 -3.634
10:29 1013 29.91 842 24.86 -1.7 28.9 72 -6.1 21.1 -92.3 -3.634
10:30 1013 29.91 842 24.86 -1.6 29.2 71 -6.1 21.1 -92.3 -3.634
10:31 1013 29.91 842 24.86 -1.7 28.9 72 -6.2 20.8 -92.3 -3.634
10:32 1013 29.91 842 24.86 -2 28.3 74 -6.1 21.1 -92.3 -3.634
10:33 1013 29.91 842 24.86 -2.1 28.2 74 -6.1 20.9 -92.3 -3.634
10:34 1013 29.91 842 24.86 -2.1 28.2 74 -6.2 20.8 -92.3 -3.634
10:35 1013 29.91 842 24.86 -2 28.4 72 -6.4 20.5 -92.3 -3.634
10:36 1013 29.91 842 24.86 -2.2 28.1 74 -6.1 20.9 -92.2 -3.63
10:37 1013 29.91 842 24.86 -2.2 28 76 -6 21.2 -92.2 -3.63
10:38 1013 29.91 842 24.86 -2.1 28.2 75 -6 21.2 -92.2 -3.63
10:39 1013 29.91 842 24.86 -2 28.5 73 -6.2 20.9 -92.2 -3.63
10:40 1013 29.91 842 24.86 -1.9 28.6 73 -6.1 21.1 -92.2 -3.63
10:41 1013 29.91 842 24.86 -1.9 28.6 72 -6.3 20.7 -92.2 -3.63
10:42 1013 29.91 842 24.86 -1.9 28.6 73 -6.1 20.9 -92.1 -3.626
10:43 1013 29.91 842 24.86 -2 28.4 73 -6.2 20.8 -92.1 -3.626
10:44 1013 29.91 842 24.86 -2 28.4 72 -6.4 20.6 -92.1 -3.626
10:45 1013 29.91 842 24.86 -1.9 28.6 73 -6.1 21 -92.1 -3.626
10:46 1013 29.91 842 24.86 -1.8 28.8 72 -6.2 20.8 -92.1 -3.626
10:47 1013 29.91 842 24.86 -1.7 28.9 71 -6.3 20.6 -92.1 -3.626
10:48 1013 29.91 842 24.86 -1.7 29 71 -6.3 20.7 -92.1 -3.626
10:49 1013 29.91 842 24.86 -1.6 29.2 70 -6.4 20.4 -92.1 -3.626
10:50 1013 29.91 842 24.86 -1.5 29.3 70 -6.2 20.8 -92.1 -3.626
10:51 1013 29.91 842 24.86 -1.5 29.4 70 -6.3 20.7 -92 -3.622
10:52 1013 29.91 842 24.86 -1.4 29.5 70 -6.2 20.9 -92 -3.622
10:53 1013 29.91 842 24.86 -1.2 29.8 69 -6.1 21 -92 -3.622
10:54 1013 29.91 842 24.86 -0.9 30.3 68 -6.1 21.1 -92 -3.622
10:55 1013 29.91 842 24.86 -0.7 30.8 67 -6.1 21 -92 -3.622
10:56 1013 29.91 842 24.86 -0.5 31.1 67 -5.9 21.4 -92 -3.622
10:57 1013 29.91 842 24.86 -0.5 31.1 66 -6 21.3 -92 -3.622
10:58 1013 29.91 842 24.86 -0.5 31.1 67 -5.8 21.5 -92 -3.622
10:59 1013 29.91 842 24.86 -0.4 31.3 67 -5.8 21.5 -91.9 -3.618
11:00 1013 29.91 842 24.86 -0.2 31.7 66 -5.7 21.7 -91.9 -3.618
11:01 1013 29.91 842 24.86 0.2 32.4 65 -5.7 21.7 -91.9 -3.618
11:02 1013 29.91 842 24.86 0.5 32.9 64 -5.5 22 -91.9 -3.618
11:03 1013 29.91 842 24.86 0.5 33 65 -5.3 22.5 -91.9 -3.618
11:04 1013 29.91 842 24.86 0.4 32.7 64 -5.7 21.8 -91.9 -3.618
11:05 1013 29.91 842 24.86 0.3 32.5 65 -5.5 22.1 -91.9 -3.618
11:06 1013 29.91 842 24.86 0.1 32.1 66 -5.5 22.1 -91.9 -3.618
11:07 1013 29.91 842 24.86 -0.2 31.7 68 -5.4 22.3 -91.8 -3.614
11:08 1013 29.91 842 24.86 -0.4 31.3 68 -5.6 21.9 -91.8 -3.614
11:09 1013 29.91 842 24.86 -0.6 30.9 70 -5.4 22.2 -91.8 -3.614
11:10 1013 29.91 842 24.86 -0.8 30.6 71 -5.4 22.3 -91.8 -3.614
11:11 1013 29.91 842 24.86 -0.9 30.4 71 -5.5 22.2 -91.8 -3.614
11:12 1013 29.91 842 24.86 -0.9 30.3 71 -5.5 22.2 -91.8 -3.614
11:13 1013 29.91 842 24.86 -0.9 30.3 71 -5.5 22 -91.8 -3.614
11:14 1013 29.91 842 24.86 -0.9 30.3 71 -5.5 22.1 -91.8 -3.614
11:15 1013 29.91 842 24.86 -0.9 30.4 72 -5.4 22.3 -91.8 -3.614
11:16 1013 29.91 842 24.86 -0.8 30.6 72 -5.2 22.6 -91.8 -3.614
11:17 1013 29.91 842 24.86 -0.7 30.8 71 -5.4 22.3 -91.7 -3.61
11:18 1013 29.91 842 24.86 -0.6 30.9 70 -5.4 22.3 -91.7 -3.61
11:19 1013 29.91 842 24.86 -0.6 30.9 70 -5.3 22.4 -91.7 -3.61
11:20 1013 29.91 842 24.86 -0.5 31 70 -5.3 22.4 -91.7 -3.61
11:21 1013 29.91 842 24.86 -0.5 31.1 70 -5.3 22.4 -91.7 -3.61
11:22 1013 29.91 842 24.86 -0.5 31.1 71 -5.2 22.7 -91.7 -3.61
11:23 1013 29.91 842 24.86 -0.4 31.2 70 -5.2 22.6 -91.7 -3.61
11:24 1013 29.91 842 24.86 -0.3 31.4 71 -5 23 -91.6 -3.606
11:25 1013 29.91 842 24.86 -0.1 31.8 69 -5.1 22.9 -91.6 -3.606
11:26 1013 29.91 842 24.86 -0.1 31.8 69 -5.2 22.7 -91.7 -3.61
11:27 1013 29.91 842 24.86 0 32.1 68 -5.1 22.8 -91.7 -3.61
11:28 1013 29.91 842 24.86 0.2 32.4 69 -4.8 23.4 -91.7 -3.61
11:29 1013 29.91 842 24.86 0.5 32.8 68 -4.7 23.5 -91.6 -3.606
11:30 1013 29.91 842 24.86 0.8 33.4 66 -4.8 23.3 -91.6 -3.606
11:31 1013 29.91 842 24.86 1.1 34 65 -4.7 23.5 -91.6 -3.606
11:32 1013 29.91 842 24.86 1.5 34.8 64 -4.5 23.9 -91.6 -3.606
11:33 1013 29.91 842 24.86 2 35.6 62 -4.5 23.9 -91.6 -3.606
11:34 1013 29.91 842 24.86 2.3 36.1 61 -4.4 24 -91.6 -3.606
11:35 1013 29.91 842 24.86 2.6 36.6 61 -4.2 24.5 -91.6 -3.606
11:36 1013 29.91 842 24.86 2.6 36.7 62 -4 24.8 -91.5 -3.602
11:37 1013 29.91 842 24.86 2.5 36.6 61 -4.2 24.5 -91.5 -3.602
11:38 1013 29.91 842 24.86 2.5 36.6 61 -4.3 24.2 -91.5 -3.602
11:39 1013 29.91 842 24.86 2.3 36.2 62 -4.2 24.5 -91.5 -3.602
11:40 1013 29.91 842 24.86 2.2 35.9 64 -4 24.8 -91.5 -3.602
11:41 1013 29.91 842 24.86 1.9 35.4 65 -4 24.8 -91.5 -3.602
11:42 1013 29.91 842 24.86 1.6 35 67 -3.8 25.2 -91.5 -3.602
11:43 1013 29.91 842 24.86 1.6 34.9 68 -3.8 25.2 -91.4 -3.598
11:44 1013 29.91 842 24.86 1.6 34.9 68 -3.7 25.3 -91.4 -3.598
11:45 1013 29.91 842 24.86 1.6 34.8 67 -3.8 25.1 -91.4 -3.598
11:46 1013 29.91 842 24.86 1.5 34.6 67 -4 24.8 -91.4 -3.598
11:47 1013 29.91 842 24.86 1.2 34.2 68 -4 24.7 -91.4 -3.598
11:48 1013 29.91 842 24.86 1 33.9 69 -3.9 24.9 -91.4 -3.598
11:49 1013 29.91 842 24.86 0.9 33.7 70 -4 24.9 -91.4 -3.598
11:50 1013 29.91 842 24.86 0.8 33.4 70 -4 24.7 -91.4 -3.598
11:51 1013 29.91 842 24.86 0.7 33.3 71 -4 24.9 -91.4 -3.598
11:52 1013 29.91 842 24.86 0.8 33.4 71 -4 24.9 -91.4 -3.598
11:53 1013 29.91 842 24.86 0.8 33.5 70 -3.9 24.9 -91.4 -3.598
11:54 1013 29.91 842 24.86 0.9 33.5 71 -3.9 25 -91.4 -3.598
11:55 1013 29.91 842 24.86 0.8 33.5 71 -3.8 25.1 -91.3 -3.594
11:56 1013 29.91 842 24.86 0.7 33.3 72 -3.7 25.3 -91.3 -3.594
11:57 1013 29.91 842 24.86 0.7 33.2 71 -3.9 24.9 -91.3 -3.594
11:58 1013 29.91 842 24.86 0.6 33.2 71 -4.1 24.7 -91.4 -3.598
11:59 1013 29.91 842 24.86 0.7 33.2 71 -4 24.8 -91.4 -3.598
12:00 1013 29.91 842 24.86 0.6 33.1 70 -4.2 24.5 -91.4 -3.598
12:01 1013 29.91 842 24.86 0.6 33.1 71 -4 24.8 -91.3 -3.594
12:02 1013 29.91 842 24.86 0.7 33.2 71 -4.1 24.7 -91.3 -3.594
12:03 1013 29.91 842 24.86 0.9 33.6 70 -4 24.8 -91.3 -3.594
12:04 1013 29.91 842 24.86 1 33.9 68 -4.2 24.5 -91.3 -3.594
12:05 1013 29.91 842 24.86 1 33.9 69 -3.9 24.9 -91.3 -3.594
12:06 1013 29.91 842 24.86 0.9 33.7 70 -3.9 25 -91.3 -3.594
12:07 1013 29.91 842 24.86 1 33.7 73 -3.4 25.8 -91.3 -3.594
12:08 1013 29.91 842 24.86 1.2 34.1 69 -4 24.8 -91.3 -3.594
12:09 1013 29.91 842 24.86 1.3 34.3 68 -3.9 25 -91.3 -3.594
12:10 1013 29.91 842 24.86 1.3 34.4 69 -3.8 25.2 -91.3 -3.594
12:11 1013 29.91 842 24.86 1.4 34.4 69 -3.8 25.2 -91.3 -3.594
12:12 1013 29.91 842 24.86 1.3 34.4 69 -3.7 25.4 -91.3 -3.594
12:13 1013 29.91 842 24.86 1.3 34.3 70 -3.7 25.4 -91.3 -3.594
12:14 1013 29.91 842 24.86 1.2 34.2 69 -3.7 25.3 -91.3 -3.594
12:15 1013 29.91 842 24.86 1.2 34.2 69 -3.9 25 -91.3 -3.594
12:16 1013 29.91 842 24.86 1.3 34.3 69 -3.7 25.3 -91.3 -3.594
12:17 1013 29.91 842 24.86 1.4 34.5 69 -3.6 25.5 -91.3 -3.594
12:18 1013 29.91 842 24.86 1.5 34.6 69 -3.6 25.5 -91.3 -3.594
12:19 1013 29.91 842 24.86 1.5 34.8 68 -3.7 25.3 -91.3 -3.594
12:20 1013 29.91 842 24.86 1.6 34.9 68 -3.7 25.4 -91.3 -3.594
12:21 1013 29.91 842 24.86 1.6 34.8 69 -3.6 25.5 -91.3 -3.594
12:22 1013 29.91 842 24.86 1.5 34.6 69 -3.7 25.4 -91.3 -3.594
12:23 1013 29.91 842 24.86 1.5 34.8 69 -3.6 25.6 -91.3 -3.594
12:24 1013 29.91 842 24.86 1.6 34.8 68 -3.8 25.2 -91.3 -3.594
12:25 1013 29.91 842 24.86 1.6 34.9 67 -3.9 25 -91.3 -3.594
12:26 1013 29.91 842 24.86 1.5 34.7 68 -3.8 25.1 -91.3 -3.594
12:27 1013 29.91 842 24.86 1.5 34.7 68 -3.8 25.1 -91.3 -3.594
12:28 1013 29.91 842 24.86 1.4 34.5 68 -3.9 25 -91.3 -3.594
12:29 1013 29.91 842 24.86 1.4 34.5 68 -3.8 25.1 -91.3 -3.594
12:30 1013 29.91 842 24.86 1.3 34.4 67 -4.1 24.6 -91.3 -3.594
12:31 1013 29.91 842 24.86 1.3 34.3 68 -4 24.9 -91.3 -3.594
12:32 1013 29.91 842 24.86 1.2 34.2 69 -3.9 25 -91.3 -3.594
12:33 1013 29.91 842 24.86 1.2 34.1 69 -3.8 25.2 -91.3 -3.594
12:34 1013 29.91 842 24.86 1.2 34.1 70 -3.7 25.3 -91.3 -3.594
12:35 1013 29.91 842 24.86 1.2 34.1 70 -3.7 25.4 -91.3 -3.594
12:36 1013 29.91 842 24.86 1.1 34.1 70 -3.7 25.4 -91.3 -3.594
12:37 1013 29.91 842 24.86 1.2 34.1 71 -3.5 25.7 -91.3 -3.594
12:38 1013 29.91 842 24.86 1.2 34.2 69 -3.8 25.2 -91.2 -3.591
12:39 1013 29.91 842 24.86 1.3 34.3 69 -3.8 25.1 -91.2 -3.591
12:40 1013 29.91 842 24.86 1.3 34.4 70 -3.6 25.5 -91.2 -3.591
12:41 1013 29.91 842 24.86 1.3 34.4 69 -3.7 25.4 -91.2 -3.591
12:42 1013 29.91 842 24.86 1.3 34.3 69 -3.8 25.1 -91.2 -3.591
12:43 1013 29.91 842 24.86 1.3 34.3 70 -3.5 25.7 -91.2 -3.591
12:44 1013 29.91 842 24.86 1.4 34.5 69 -3.6 25.6 -91.2 -3.591
12:45 1013 29.91 842 24.86 1.4 34.5 67 -4 24.9 -91.2 -3.591
12:46 1013 29.91 842 24.86 1.4 34.5 67 -4 24.8 -91.3 -3.594
12:47 1013 29.91 842 24.86 1.3 34.4 67 -4.1 24.6 -91.3 -3.594
12:48 1013 29.91 842 24.86 1.3 34.3 68 -4.1 24.7 -91.3 -3.594
12:49 1013 29.91 842 24.86 1.3 34.3 68 -3.9 25 -91.3 -3.594
12:50 1013 29.91 842 24.86 1.3 34.4 68 -3.9 24.9 -91.3 -3.594
12:51 1013 29.91 842 24.86 1.3 34.3 67 -4.2 24.4 -91.3 -3.594
12:52 1013 29.91 842 24.86 1.3 34.3 68 -3.9 25 -91.3 -3.594
12:53 1013 29.91 842 24.86 1.3 34.4 67 -4.1 24.7 -91.3 -3.594
12:54 1013 29.91 842 24.86 1.4 34.5 67 -4 24.8 -91.3 -3.594
12:55 1012 29.88 842 24.86 1.3 34.4 67 -4.1 24.5 -91.3 -3.594
12:56 1012 29.88 842 24.86 1.3 34.4 67 -4.1 24.6 -91.3 -3.594
12:57 1012 29.88 842 24.86 1.3 34.4 67 -4 24.7 -91.3 -3.594
12:58 1012 29.88 842 24.86 1.4 34.5 68 -3.9 24.9 -91.3 -3.594
12:59 1012 29.88 842 24.86 1.5 34.6 67 -4 24.8 -91.3 -3.594
13:00 1012 29.88 842 24.86 1.5 34.8 67 -3.9 25 -91.3 -3.594
13:01 1012 29.88 842 24.86 1.6 35 67 -3.9 25 -91.3 -3.594
13:02 1012 29.88 842 24.86 1.7 35.1 67 -3.7 25.4 -91.3 -3.594
13:03 1012 29.88 842 24.86 1.8 35.3 67 -3.7 25.3 -91.3 -3.594
13:04 1012 29.88 842 24.86 1.9 35.4 66 -3.9 25 -91.3 -3.594
13:05 1012 29.88 842 24.86 1.9 35.4 65 -3.9 25 -91.3 -3.594
13:06 1012 29.88 842 24.86 1.9 35.4 67 -3.7 25.4 -91.3 -3.594
13:07 1012 29.88 842 24.86 1.9 35.5 67 -3.6 25.6 -91.3 -3.594
13:08 1012 29.88 842 24.86 1.9 35.5 67 -3.6 25.5 -91.3 -3.594
13:09 1012 29.88 842 24.86 2 35.5 66 -3.8 25.1 -91.3 -3.594
13:10 1012 29.88 842 24.86 2 35.6 67 -3.6 25.5 -91.3 -3.594
13:11 1012 29.88 842 24.86 2 35.7 65 -3.9 24.9 -91.3 -3.594
13:12 1012 29.88 842 24.86 2 35.6 65 -3.9 25.1 -91.3 -3.594
13:13 1012 29.88 842 24.86 2 35.6 66 -3.7 25.3 -91.3 -3.594
13:14 1012 29.88 842 24.86 2 35.5 67 -3.6 25.6 -91.3 -3.594
13:15 1012 29.88 842 24.86 2 35.6 65 -3.8 25.1 -91.3 -3.594
13:16 1012 29.88 842 24.86 2 35.6 66 -3.6 25.5 -91.3 -3.594
13:17 1012 29.88 842 24.86 2 35.5 66 -3.8 25.1 -91.3 -3.594
13:18 1012 29.88 842 24.86 1.9 35.5 66 -3.8 25.2 -91.3 -3.594
13:19 1012 29.88 842 24.86 2 35.5 67 -3.5 25.8 -91.3 -3.594
13:20 1012 29.88 842 24.86 2 35.5 67 -3.6 25.6 -91.3 -3.594
13:21 1012 29.88 842 24.86 2 35.6 66 -3.7 25.4 -91.3 -3.594
13:22 1012 29.88 842 24.86 2 35.6 66 -3.7 25.3 -91.3 -3.594
13:23 1012 29.88 841 24.83 2 35.7 66 -3.7 25.3 -91.3 -3.594
13:24 1012 29.88 842 24.86 2.1 35.7 66 -3.6 25.5 -91.3 -3.594
13:25 1012 29.88 842 24.86 2.1 35.8 65 -3.7 25.3 -91.3 -3.594
13:26 1012 29.88 841 24.83 2.2 35.9 66 -3.6 25.5 -91.3 -3.594
13:27 1012 29.88 841 24.83 2.2 36 65 -3.6 25.5 -91.3 -3.594
13:28 1012 29.88 841 24.83 2.2 36 65 -3.6 25.5 -91.3 -3.594
13:29 1012 29.88 841 24.83 2.2 36 66 -3.5 25.7 -91.3 -3.594
13:30 1012 29.88 842 24.86 2.2 36 65 -3.7 25.4 -91.3 -3.594
13:31 1012 29.88 842 24.86 2.3 36.1 66 -3.4 25.8 -91.3 -3.594
13:32 1012 29.88 841 24.83 2.3 36.2 65 -3.5 25.7 -91.3 -3.594
13:33 1012 29.88 841 24.83 2.4 36.3 66 -3.4 25.9 -91.2 -3.591
13:34 1012 29.88 841 24.83 2.5 36.5 66 -3.3 26.1 -91.3 -3.594
13:35 1012 29.88 841 24.83 2.5 36.5 65 -3.5 25.7 -91.3 -3.594
13:36 1012 29.88 841 24.83 2.4 36.4 66 -3.3 26.1 -91.3 -3.594
13:37 1012 29.88 841 24.83 2.4 36.4 67 -3.1 26.4 -91.3 -3.594
13:38 1012 29.88 841 24.83 2.5 36.5 66 -3.2 26.3 -91.2 -3.591
13:39 1012 29.88 841 24.83 2.6 36.6 65 -3.3 26 -91.2 -3.591
13:40 1012 29.88 841 24.83 2.6 36.7 66 -3.1 26.4 -91.2 -3.591
13:41 1012 29.88 841 24.83 2.6 36.7 66 -3.1 26.3 -91.2 -3.591
13:42 1012 29.88 841 24.83 2.6 36.7 64 -3.4 25.9 -91.2 -3.591
13:43 1012 29.88 841 24.83 2.6 36.7 65 -3.4 25.9 -91.2 -3.591
13:44 1012 29.88 841 24.83 2.6 36.6 65 -3.4 25.9 -91.2 -3.591
13:45 1012 29.88 841 24.83 2.6 36.6 66 -3.1 26.4 -91.2 -3.591
13:46 1012 29.88 841 24.83 2.6 36.8 66 -3.2 26.3 -91.2 -3.591
13:47 1012 29.88 841 24.83 2.7 36.9 66 -2.9 26.8 -91.2 -3.591
13:48 1012 29.88 841 24.83 2.9 37.2 64 -3.2 26.2 -91.2 -3.591
13:49 1012 29.88 841 24.83 2.9 37.3 65 -3 26.6 -91.2 -3.591
13:50 1012 29.88 841 24.83 3 37.4 65 -2.9 26.7 -91.2 -3.591
13:51 1012 29.88 841 24.83 3.1 37.6 66 -2.7 27.1 -91.2 -3.591
13:52 1012 29.88 841 24.83 3.1 37.6 64 -3.1 26.5 -91.2 -3.591
13:53 1012 29.88 841 24.83 3.1 37.6 65 -2.9 26.7 -91.2 -3.591
13:54 1012 29.88 841 24.83 3.1 37.5 64 -3 26.6 -91.2 -3.591
13:55 1012 29.88 841 24.83 3 37.5 63 -3.2 26.2 -91.2 -3.591
13:56 1012 29.88 841 24.83 3.1 37.6 64 -3 26.6 -91.2 -3.591
13:57 1012 29.88 841 24.83 3.1 37.7 63 -3.1 26.3 -91.2 -3.591
13:58 1012 29.88 841 24.83 3.2 37.7 62 -3.4 25.9 -91.2 -3.591
13:59 1012 29.88 841 24.83 3.2 37.7 64 -3.1 26.5 -91.2 -3.591
14:00 1012 29.88 841 24.83 3.2 37.8 64 -3 26.6 -91.2 -3.591
14:01 1012 29.88 841 24.83 3.3 37.9 64 -2.9 26.7 -91.2 -3.591
14:02 1012 29.88 841 24.83 3.2 37.8 66 -2.6 27.4 -91.2 -3.591
14:03 1012 29.88 841 24.83 3.3 38 66 -2.5 27.4 -91.2 -3.591
14:04 1012 29.88 841 24.83 3.4 38 66 -2.4 27.7 -91.2 -3.591
14:05 1012 29.88 841 24.83 3.5 38.2 64 -2.7 27.2 -91.1 -3.587
14:06 1012 29.88 841 24.83 3.5 38.3 63 -2.9 26.9 -91.1 -3.587
14:07 1012 29.88 841 24.83 3.5 38.3 62 -3.2 26.3 -91.1 -3.587
14:08 1012 29.88 841 24.83 3.5 38.3 63 -3 26.7 -91.2 -3.591
14:09 1011 29.85 841 24.83 3.5 38.3 62 -3 26.5 -91.2 -3.591
14:10 1011 29.85 841 24.83 3.5 38.2 63 -2.9 26.8 -91.2 -3.591
14:11 1012 29.88 841 24.83 3.5 38.3 62 -3.1 26.4 -91.1 -3.587
14:12 1012 29.88 841 24.83 3.5 38.4 62 -3.1 26.5 -91.1 -3.587
14:13 1012 29.88 841 24.83 3.5 38.3 61 -3.2 26.3 -91.1 -3.587
14:14 1012 29.88 841 24.83 3.5 38.4 62 -3 26.6 -91.1 -3.587
14:15 1012 29.88 841 24.83 3.5 38.3 62 -3 26.6 -91.1 -3.587
14:16 1012 29.88 841 24.83 3.5 38.4 62 -3.1 26.4 -91.1 -3.587
14:17 1012 29.88 841 24.83 3.5 38.4 62 -3.1 26.4 -91.1 -3.587
14:18 1012 29.88 841 24.83 3.6 38.4 62 -3.1 26.4 -91.1 -3.587
14:19 1012 29.88 841 24.83 3.6 38.4 61 -3.2 26.3 -91.1 -3.587
14:20 1012 29.88 841 24.83 3.6 38.4 62 -3 26.6 -91.1 -3.587
14:21 1012 29.88 841 24.83 3.7 38.6 63 -2.7 27.1 -91.1 -3.587
14:22 1012 29.88 841 24.83 3.8 38.8 61 -2.9 26.7 -91.1 -3.587
14:23 1012 29.88 841 24.83 3.9 39 60 -3.1 26.3 -91.1 -3.587
14:24 1012 29.88 841 24.83 3.9 39 58 -3.6 25.5 -91.1 -3.587
14:25 1011 29.85 841 24.83 3.9 39.1 60 -3.1 26.5 -91.1 -3.587
14:26 1011 29.85 841 24.83 4 39.1 60 -3.2 26.3 -91.1 -3.587
14:27 1011 29.85 841 24.83 3.9 39 62 -2.7 27.1 -91.1 -3.587
14:28 1011 29.85 841 24.83 4 39.1 62 -2.7 27.1 -91.1 -3.587
14:29 1011 29.85 841 24.83 3.9 39 61 -3 26.6 -91.1 -3.587
14:30 1011 29.85 841 24.83 3.9 39 60 -3.1 26.4 -91.1 -3.587
14:31 1011 29.85 841 24.83 3.9 39.1 61 -3 26.7 -91.1 -3.587
14:32 1011 29.85 841 24.83 4.1 39.3 57 -3.6 25.5 -91.1 -3.587
14:33 1011 29.85 841 24.83 4.2 39.6 57 -3.6 25.6 -91.1 -3.587
14:34 1011 29.85 841 24.83 4.4 39.9 54 -4.2 24.5 -91.1 -3.587
14:35 1011 29.85 841 24.83 4.6 40.3 55 -3.6 25.5 -91 -3.583
14:36 1011 29.85 841 24.83 4.7 40.5 50 -4.9 23.2 -91 -3.583
14:37 1011 29.85 841 24.83 4.9 40.9 49 -4.8 23.4 -91.1 -3.587
14:38 1011 29.85 841 24.83 5.2 41.4 47 -5.3 22.5 -91.1 -3.587
14:39 1011 29.85 840 24.81 5.4 41.7 49 -4.5 23.9 -91.1 -3.587
14:40 1011 29.85 840 24.81 5.4 41.7 50 -4.2 24.4 -91 -3.583
14:41 1011 29.85 840 24.81 5.3 41.5 51 -4.1 24.7 -91 -3.583
14:42 1011 29.85 840 24.81 5.2 41.4 51 -4.2 24.5 -91 -3.583
14:43 1011 29.85 840 24.81 5.2 41.3 53 -3.7 25.3 -91 -3.583
14:44 1011 29.85 840 24.81 5 41 54 -3.5 25.7 -91 -3.583
14:45 1011 29.85 840 24.81 4.9 40.8 52 -4.2 24.5 -91 -3.583
14:46 1011 29.85 840 24.81 4.8 40.7 53 -4 24.9 -91 -3.583
14:47 1011 29.85 840 24.81 4.9 40.8 55 -3.5 25.7 -91 -3.583
14:48 1011 29.85 840 24.81 4.9 40.8 54 -3.7 25.3 -91 -3.583
14:49 1011 29.85 840 24.81 4.9 40.9 53 -4 24.9 -91 -3.583
14:50 1011 29.85 840 24.81 5 41 55 -3.4 25.9 -91 -3.583
14:51 1011 29.85 840 24.81 5 41.1 47 -5.3 22.5 -91 -3.583
14:52 1011 29.85 840 24.81 5.2 41.4 54 -3.4 25.9 -91 -3.583
14:53 1011 29.85 840 24.81 5.3 41.6 53 -3.5 25.7 -91 -3.583
14:54 1011 29.85 840 24.81 5.3 41.6 54 -3.3 26 -91 -3.583
14:55 1011 29.85 840 24.81 5.5 41.8 53 -3.4 25.8 -91 -3.583
14:56 1011 29.85 840 24.81 5.6 42 53 -3.3 26 -90.9 -3.579
14:57 1011 29.85 840 24.81 5.6 42.1 53 -3.2 26.2 -90.9 -3.579
14:58 1011 29.85 840 24.81 5.6 42 52 -3.6 25.6 -90.9 -3.579
14:59 1011 29.85 840 24.81 5.6 42 52 -3.4 25.8 -90.9 -3.579
15:00 1011 29.85 840 24.81 5.6 42.1 52 -3.6 25.6 -90.9 -3.579
15:01 1011 29.85 840 24.81 5.6 42.1 51 -3.6 25.5 -90.9 -3.579
15:02 1011 29.85 840 24.81 5.8 42.4 44 -5.5 22.1 -90.9 -3.579
15:03 1011 29.85 840 24.81 6.1 43 42 -6 21.3 -90.9 -3.579
15:04 1011 29.85 840 24.81 6.4 43.5 45 -4.7 23.5 -90.9 -3.579
15:05 1011 29.85 840 24.81 6.5 43.7 45 -4.4 24 -90.9 -3.579
15:06 1011 29.85 840 24.81 6.6 43.9 42 -5.4 22.2 -90.9 -3.579
15:07 1011 29.85 840 24.81 6.7 44.1 41 -5.7 21.8 -90.9 -3.579
15:08 1011 29.85 840 24.81 6.7 44.1 43 -4.9 23.2 -90.9 -3.579
15:09 1011 29.85 840 24.81 6.8 44.2 44 -4.7 23.5 -90.9 -3.579
15:10 1011 29.85 840 24.81 6.8 44.3 39 -6.1 21.1 -90.9 -3.579
15:11 1011 29.85 840 24.81 6.8 44.2 41 -5.7 21.7 -90.9 -3.579
15:12 1011 29.85 840 24.81 6.7 44.1 43 -5 23 -90.9 -3.579
15:13 1011 29.85 840 24.81 6.7 44.1 41 -5.7 21.8 -90.9 -3.579
15:14 1011 29.85 840 24.81 6.6 43.9 40 -5.9 21.4 -90.9 -3.579
15:15 1011 29.85 840 24.81 6.4 43.5 43 -5.4 22.3 -90.9 -3.579
15:16 1011 29.85 840 24.81 6.3 43.4 42 -5.5 22.1 -90.8 -3.575
15:17 1011 29.85 840 24.81 6.3 43.3 42 -5.7 21.7 -90.8 -3.575
15:18 1011 29.85 840 24.81 6.4 43.5 43 -5.3 22.4 -90.8 -3.575
15:19 1011 29.85 840 24.81 6.4 43.5 42 -5.7 21.7 -90.8 -3.575
15:20 1011 29.85 840 24.81 6.4 43.5 42 -5.6 22 -90.8 -3.575
15:21 1011 29.85 840 24.81 6.4 43.5 42 -5.7 21.8 -90.8 -3.575
15:22 1011 29.85 840 24.81 6.4 43.6 41 -5.8 21.6 -90.8 -3.575
15:23 1011 29.85 840 24.81 6.4 43.5 45 -4.6 23.8 -90.8 -3.575
15:24 1011 29.85 840 24.81 6.4 43.5 44 -5 22.9 -90.8 -3.575
15:25 1011 29.85 840 24.81 6.4 43.4 46 -4.5 23.9 -90.8 -3.575
15:26 1011 29.85 840 24.81 6.3 43.4 45 -4.7 23.5 -90.7 -3.571
15:27 1011 29.85 840 24.81 6.3 43.3 43 -5.3 22.5 -90.7 -3.571
15:28 1011 29.85 840 24.81 6.3 43.3 43 -5.3 22.5 -90.7 -3.571
15:29 1011 29.85 840 24.81 6.2 43.2 44 -5.2 22.6 -90.7 -3.571
15:30 1011 29.85 840 24.81 6.2 43.1 45 -4.9 23.2 -90.7 -3.571
15:31 1011 29.85 840 24.81 6.1 43 43 -5.5 22.1 -90.7 -3.571
15:32 1011 29.85 840 24.81 6 42.8 46 -4.8 23.3 -90.7 -3.571
15:33 1011 29.85 840 24.81 5.9 42.7 47 -4.6 23.8 -90.7 -3.571
15:34 1011 29.85 840 24.81 5.9 42.5 45 -5.3 22.5 -90.7 -3.571
15:35 1011 29.85 840 24.81 5.8 42.5 46 -5 23 -90.7 -3.571
15:36 1011 29.85 840 24.81 5.8 42.5 46 -4.9 23.3 -90.7 -3.571
15:37 1011 29.85 840 24.81 5.8 42.4 43 -5.8 21.6 -90.7 -3.571
15:38 1011 29.85 840 24.81 5.9 42.6 42 -5.9 21.3 -90.7 -3.571
15:39 1011 29.85 840 24.81 6 42.7 45 -5.2 22.6 -90.7 -3.571
15:40 1011 29.85 840 24.81 6 42.8 46 -4.8 23.4 -90.7 -3.571
15:41 1011 29.85 840 24.81 6 42.8 44 -5.3 22.5 -90.7 -3.571
15:42 1011 29.85 840 24.81 6.1 42.9 42 -5.8 21.6 -90.7 -3.571
15:43 1011 29.85 840 24.81 6.1 42.9 43 -5.6 21.9 -90.7 -3.571
15:44 1011 29.85 840 24.81 6.1 43 45 -5.1 22.9 -90.6 -3.567
15:45 1011 29.85 840 24.81 6 42.9 46 -4.7 23.6 -90.6 -3.567
15:46 1011 29.85 840 24.81 5.9 42.7 45 -5 23 -90.6 -3.567
15:47 1011 29.85 840 24.81 5.9 42.6 45 -5.1 22.8 -90.6 -3.567
15:48 1011 29.85 840 24.81 5.9 42.7 43 -5.6 21.8 -90.6 -3.567
15:49 1011 29.85 840 24.81 6 42.7 45 -5 23.1 -90.6 -3.567
15:50 1011 29.85 840 24.81 5.9 42.7 46 -4.7 23.6 -90.6 -3.567
15:51 1011 29.85 840 24.81 5.9 42.5 47 -4.5 23.9 -90.6 -3.567
15:52 1011 29.85 840 24.81 5.8 42.4 45 -5.3 22.5 -90.6 -3.567
15:53 1011 29.85 840 24.81 5.8 42.4 43 -5.9 21.4 -90.6 -3.567
15:54 1011 29.85 840 24.81 5.8 42.4 45 -5.2 22.7 -90.6 -3.567
15:55 1011 29.85 840 24.81 5.8 42.4 45 -5.2 22.7 -90.6 -3.567
15:56 1011 29.85 840 24.81 5.7 42.3 47 -4.8 23.3 -90.6 -3.567
15:57 1011 29.85 840 24.81 5.7 42.2 47 -4.8 23.3 -90.6 -3.567
15:58 1011 29.85 840 24.81 5.6 42 46 -5.1 22.8 -90.6 -3.567
15:59 1011 29.85 840 24.81 5.5 41.9 46 -5.1 22.8 -90.6 -3.567
16:00 1011 29.85 840 24.81 5.5 41.9 44 -5.8 21.6 -90.6 -3.567
16:01 1011 29.85 840 24.81 5.6 42 47 -4.9 23.1 -90.6 -3.567
16:02 1011 29.85 840 24.81 5.5 41.9 47 -4.9 23.2 -90.6 -3.567
16:03 1011 29.85 840 24.81 5.4 41.8 48 -4.8 23.4 -90.6 -3.567
16:04 1011 29.85 840 24.81 5.4 41.6 45 -5.6 22 -90.6 -3.567
16:05 1011 29.85 840 24.81 5.3 41.6 47 -5.2 22.7 -90.6 -3.567
16:06 1011 29.85 840 24.81 5.3 41.5 48 -5 23.1 -90.6 -3.567
16:07 1011 29.85 840 24.81 5.2 41.3 47 -5.1 22.8 -90.6 -3.567
16:08 1011 29.85 840 24.81 5.1 41.1 46 -5.6 21.9 -90.6 -3.567
16:09 1011 29.85 840 24.81 5 41.1 46 -5.6 21.8 -90.6 -3.567
16:10 1011 29.85 840 24.81 5.1 41.1 47 -5.4 22.3 -90.6 -3.567
16:11 1011 29.85 840 24.81 5 40.9 49 -5 23 -90.6 -3.567
16:12 1011 29.85 840 24.81 4.8 40.7 50 -4.8 23.4 -90.6 -3.567
16:13 1011 29.85 840 24.81 4.6 40.3 49 -5.2 22.7 -90.6 -3.567
16:14 1011 29.85 840 24.81 4.6 40.2 50 -5 22.9 -90.6 -3.567
16:15 1011 29.85 840 24.81 4.5 40 50 -5 23.1 -90.7 -3.571
16:16 1011 29.85 840 24.81 4.4 39.9 51 -4.9 23.3 -90.7 -3.571
16:17 1011 29.85 840 24.81 4.3 39.7 52 -4.7 23.6 -90.7 -3.571
16:18 1011 29.85 840 24.81 4.1 39.4 51 -5 23 -90.7 -3.571
16:19 1011 29.85 840 24.81 4 39.3 50 -5.3 22.4 -90.7 -3.571
16:20 1011 29.85 840 24.81 4.1 39.3 51 -5.2 22.7 -90.7 -3.571
16:21 1011 29.85 840 24.81 4 39.3 53 -4.7 23.5 -90.7 -3.571
16:22 1011 29.85 840 24.81 3.9 39.1 53 -4.7 23.5 -90.7 -3.571
16:23 1011 29.85 840 24.81 3.8 38.8 54 -4.7 23.5 -90.7 -3.571
16:24 1011 29.85 840 24.81 3.6 38.6 54 -4.7 23.5 -90.7 -3.571
16:25 1011 29.85 840 24.81 3.6 38.4 54 -4.8 23.3 -90.7 -3.571
16:26 1011 29.85 840 24.81 3.4 38.2 54 -4.9 23.1 -90.7 -3.571
16:27 1011 29.85 840 24.81 3.4 38.1 55 -4.8 23.3 -90.7 -3.571
16:28 1011 29.85 840 24.81 3.3 38 55 -4.9 23.2 -90.7 -3.571
16:29 1011 29.85 840 24.81 3.3 37.9 56 -4.7 23.5 -90.7 -3.571
16:30 1011 29.85 840 24.81 3.2 37.8 56 -4.7 23.6 -90.7 -3.571
16:31 1011 29.85 840 24.81 3.1 37.6 56 -4.7 23.5 -90.7 -3.571
16:32 1011 29.85 840 24.81 3.1 37.5 56 -4.8 23.4 -90.7 -3.571
16:33 1011 29.85 840 24.81 3 37.5 56 -4.8 23.4 -90.7 -3.571
16:34 1011 29.85 840 24.81 3 37.3 57 -4.7 23.5 -90.7 -3.571
16:35 1011 29.85 840 24.81 2.9 37.3 57 -4.8 23.4 -90.7 -3.571
16:36 1011 29.85 840 24.81 2.9 37.1 57 -4.8 23.3 -90.7 -3.571
16:37 1011 29.85 840 24.81 2.8 37.1 56 -5 23 -90.7 -3.571
16:38 1011 29.85 840 24.81 2.8 37 57 -5 23 -90.8 -3.575
16:39 1011 29.85 840 24.81 2.7 36.9 57 -5 23 -90.8 -3.575
16:40 1011 29.85 840 24.81 2.7 36.9 57 -5 23 -90.8 -3.575
16:41 1011 29.85 840 24.81 2.7 36.9 57 -4.9 23.1 -90.8 -3.575
16:42 1010 29.83 840 24.81 2.7 36.8 57 -5 23 -90.8 -3.575
16:43 1011 29.85 840 24.81 2.6 36.7 57 -5 22.9 -90.8 -3.575
16:44 1011 29.85 840 24.81 2.6 36.6 57 -5 23 -90.8 -3.575
16:45 1011 29.85 840 24.81 2.5 36.5 58 -5 23 -90.8 -3.575
16:46 1011 29.85 840 24.81 2.5 36.5 58 -5 23 -90.8 -3.575
16:47 1011 29.85 840 24.81 2.5 36.5 58 -5 23 -90.8 -3.575
16:48 1011 29.85 840 24.81 2.5 36.5 58 -5 23.1 -90.8 -3.575
16:49 1011 29.85 840 24.81 2.5 36.5 57 -5 22.9 -90.8 -3.575
16:50 1011 29.85 840 24.81 2.6 36.6 57 -5.1 22.7 -90.9 -3.579
16:51 1011 29.85 840 24.81 2.7 36.8 57 -5.1 22.8 -90.9 -3.579
16:52 1011 29.85 840 24.81 2.7 36.8 56 -5.3 22.4 -90.9 -3.579
16:53 1011 29.85 840 24.81 2.7 36.8 55 -5.4 22.2 -90.9 -3.579
16:54 1011 29.85 840 24.81 2.7 36.9 55 -5.4 22.4 -90.9 -3.579
16:55 1011 29.85 840 24.81 2.7 36.8 55 -5.4 22.2 -90.9 -3.579
16:56 1011 29.85 840 24.81 2.7 36.9 55 -5.4 22.2 -90.9 -3.579
16:57 1011 29.85 840 24.81 2.8 37 55 -5.5 22.1 -90.9 -3.579
16:58 1011 29.85 840 24.81 2.8 37.1 55 -5.4 22.3 -91 -3.583
16:59 1011 29.85 840 24.81 2.9 37.2 55 -5.4 22.3 -91 -3.583
17:00 1011 29.85 840 24.81 2.9 37.2 54 -5.5 22.1 -91 -3.583
17:01 1011 29.85 840 24.81 3 37.3 54 -5.4 22.2 -91 -3.583
17:02 1011 29.85 840 24.81 3 37.3 54 -5.5 22.1 -91 -3.583
17:03 1011 29.85 840 24.81 3 37.4 54 -5.5 22.1 -91 -3.583
17:04 1011 29.85 840 24.81 3 37.5 54 -5.4 22.3 -91 -3.583
17:05 1011 29.85 840 24.81 2.8 37.1 55 -5.2 22.6 -91 -3.583
17:06 1011 29.85 840 24.81 2.5 36.6 56 -5.4 22.2 -91 -3.583
17:07 1011 29.85 840 24.81 2.5 36.5 58 -5 22.9 -91 -3.583
17:08 1011 29.85 840 24.81 2.2 36 59 -5 22.9 -91 -3.583
17:09 1011 29.85 840 24.81 2 35.6 59 -5.1 22.8 -91 -3.583
17:10 1011 29.85 840 24.81 1.9 35.5 59 -5.2 22.7 -91.1 -3.587
17:11 1011 29.85 840 24.81 2 35.6 59 -5.2 22.6 -91.1 -3.587
17:12 1011 29.85 840 24.81 2.1 35.7 57 -5.5 22.1 -91.1 -3.587
17:13 1011 29.85 840 24.81 2.2 36 58 -5.2 22.6 -91.1 -3.587
17:14 1011 29.85 840 24.81 2.2 36 58 -5.3 22.4 -91.1 -3.587
17:15 1011 29.85 840 24.81 2.3 36.1 58 -5.2 22.6 -91.1 -3.587
17:16 1011 29.85 840 24.81 2.2 36 59 -4.9 23.2 -91.1 -3.587
17:17 1011 29.85 840 24.81 2 35.7 59 -5.1 22.7 -91.1 -3.587
17:18 1011 29.85 840 24.81 1.9 35.4 59 -5.3 22.4 -91.1 -3.587
17:19 1011 29.85 840 24.81 1.8 35.2 59 -5.4 22.3 -91.1 -3.587
17:20 1011 29.85 840 24.81 1.9 35.4 58 -5.4 22.2 -91.1 -3.587
17:21 1011 29.85 840 24.81 2 35.6 57 -5.6 22 -91.1 -3.587
17:22 1011 29.85 840 24.81 2.1 35.8 57 -5.5 22 -91.1 -3.587
17:23 1011 29.85 840 24.81 2.2 36 58 -5.3 22.5 -91.1 -3.587
17:24 1011 29.85 840 24.81 2.2 35.9 57 -5.5 22.1 -91.1 -3.587
17:25 1011 29.85 840 24.81 2.3 36.1 56 -5.5 22 -91.2 -3.591
17:26 1011 29.85 840 24.81 2.4 36.3 56 -5.4 22.2 -91.2 -3.591
17:27 1011 29.85 840 24.81 2.4 36.4 55 -5.6 21.9 -91.2 -3.591
17:28 1011 29.85 840 24.81 2.6 36.7 54 -5.7 21.7 -91.2 -3.591
17:29 1011 29.85 840 24.81 2.6 36.6 56 -5.3 22.5 -91.2 -3.591
17:30 1011 29.85 840 24.81 2.4 36.3 56 -5.6 22 -91.2 -3.591
17:31 1011 29.85 840 24.81 2.4 36.4 56 -5.4 22.2 -91.2 -3.591
17:32 1011 29.85 840 24.81 2.2 36 57 -5.3 22.4 -91.2 -3.591
17:33 1011 29.85 840 24.81 1.8 35.2 60 -5.3 22.5 -91.2 -3.591
17:34 1011 29.85 840 24.81 1.3 34.3 61 -5.4 22.3 -91.2 -3.591
17:35 1011 29.85 840 24.81 1 33.7 64 -5.2 22.7 -91.2 -3.591
17:36 1011 29.85 840 24.81 0.7 33.3 63 -5.4 22.2 -91.2 -3.591
17:37 1011 29.85 840 24.81 1.1 33.9 62 -5.4 22.2 -91.2 -3.591
17:38 1011 29.85 840 24.81 1.2 34.2 60 -5.6 21.9 -91.2 -3.591
17:39 1011 29.85 840 24.81 1.4 34.6 58 -5.8 21.5 -91.2 -3.591
17:40 1011 29.85 840 24.81 1.8 35.2 57 -5.9 21.3 -91.2 -3.591
17:41 1011 29.85 840 24.81 1.9 35.4 57 -5.6 21.9 -91.2 -3.591
17:42 1011 29.85 840 24.81 1.7 35 58 -5.6 21.9 -91.2 -3.591
17:43 1011 29.85 840 24.81 1.6 34.9 58 -5.7 21.7 -91.2 -3.591
17:44 1011 29.85 840 24.81 1.6 34.9 59 -5.7 21.8 -91.2 -3.591
17:45 1011 29.85 840 24.81 1.6 35 58 -5.7 21.7 -91.3 -3.594
17:46 1011 29.85 840 24.81 1.8 35.2 58 -5.7 21.7 -91.3 -3.594
17:47 1011 29.85 840 24.81 1.8 35.2 58 -5.5 22 -91.3 -3.594
17:48 1011 29.85 840 24.81 1.7 35.1 59 -5.5 22 -91.3 -3.594
17:49 1011 29.85 840 24.81 1.6 34.9 59 -5.5 22.1 -91.3 -3.594
17:50 1011 29.85 840 24.81 1.5 34.7 61 -5.3 22.4 -91.3 -3.594
17:51 1010 29.83 840 24.81 1.3 34.4 62 -5.2 22.6 -91.3 -3.594
17:52 1011 29.85 840 24.81 1.2 34.2 62 -5.2 22.6 -91.3 -3.594
17:53 1011 29.85 840 24.81 1.1 34 63 -5.2 22.7 -91.3 -3.594
17:54 1011 29.85 840 24.81 1 33.8 63 -5.2 22.7 -91.3 -3.594
17:55 1011 29.85 840 24.81 1 33.8 64 -5.1 22.8 -91.3 -3.594
17:56 1010 29.83 840 24.81 1.1 33.9 64 -5.1 22.9 -91.3 -3.594
17:57 1010 29.83 840 24.81 1.1 33.9 63 -5.2 22.6 -91.3 -3.594
17:58 1010 29.83 840 24.81 1.1 34 63 -5.1 22.9 -91.3 -3.594
17:59 1010 29.83 840 24.81 1 33.9 64 -5.1 22.9 -91.3 -3.594
18:00 1010 29.83 840 24.81 1 33.8 64 -5.1 22.8 -91.3 -3.594
18:01 1011 29.85 840 24.81 0.9 33.6 65 -5 23 -91.3 -3.594
18:02 1011 29.85 840 24.81 0.7 33.3 65 -5 22.9 -91.3 -3.594
18:03 1011 29.85 840 24.81 0.7 33.2 65 -5.1 22.9 -91.3 -3.594
18:04 1011 29.85 840 24.81 0.6 33.1 65 -5.3 22.5 -91.3 -3.594
18:05 1011 29.85 840 24.81 0.5 32.9 66 -5.2 22.6 -91.3 -3.594
18:06 1011 29.85 840 24.81 0.5 33 65 -5.3 22.4 -91.3 -3.594
18:07 1010 29.83 840 24.81 0.7 33.2 64 -5.3 22.4 -91.3 -3.594
18:08 1011 29.85 840 24.81 0.6 33.1 64 -5.4 22.3 -91.3 -3.594
18:09 1011 29.85 840 24.81 0.5 33 64 -5.6 22 -91.4 -3.598
18:10 1011 29.85 840 24.81 0.4 32.7 64 -5.5 22 -91.4 -3.598
18:11 1010 29.83 840 24.81 0.2 32.4 65 -5.6 22 -91.4 -3.598
18:12 1011 29.85 840 24.81 0 32.1 66 -5.5 22 -91.4 -3.598
18:13 1011 29.85 840 24.81 0.1 32.2 66 -5.5 22.1 -91.4 -3.598
18:14 1010 29.83 840 24.81 0.3 32.5 65 -5.5 22 -91.4 -3.598
18:15 1010 29.83 840 24.81 0.4 32.8 65 -5.4 22.2 -91.4 -3.598
18:16 1010 29.83 840 24.81 0.6 33 65 -5.3 22.4 -91.4 -3.598
18:17 1010 29.83 840 24.81 0.5 33 65 -5.3 22.5 -91.4 -3.598
18:18 1010 29.83 840 24.81 0.3 32.6 66 -5.4 22.3 -91.4 -3.598
18:19 1010 29.83 840 24.81 0.2 32.4 67 -5.3 22.5 -91.4 -3.598
18:20 1010 29.83 840 24.81 0.1 32.1 67 -5.3 22.4 -91.4 -3.598
18:21 1010 29.83 840 24.81 -0.1 31.8 67 -5.4 22.2 -91.4 -3.598
18:22 1010 29.83 840 24.81 -0.2 31.6 68 -5.5 22.1 -91.4 -3.598
18:23 1010 29.83 840 24.81 -0.2 31.7 67 -5.5 22.1 -91.4 -3.598
18:24 1010 29.83 840 24.81 -0.1 31.8 67 -5.5 22.1 -91.4 -3.598
18:25 1010 29.83 839 24.78 -0.1 31.7 68 -5.4 22.3 -91.4 -3.598
18:26 1010 29.83 839 24.78 -0.2 31.7 67 -5.6 22 -91.4 -3.598
18:27 1010 29.83 839 24.78 -0.1 31.8 67 -5.6 21.9 -91.4 -3.598
18:28 1010 29.83 839 24.78 -0.1 31.7 66 -5.7 21.8 -91.4 -3.598
18:29 1010 29.83 839 24.78 -0.2 31.7 67 -5.5 22.1 -91.4 -3.598
18:30 1010 29.83 839 24.78 -0.2 31.6 67 -5.6 22 -91.4 -3.598
18:31 1010 29.83 839 24.78 -0.3 31.5 67 -5.7 21.8 -91.4 -3.598
18:32 1010 29.83 839 24.78 -0.3 31.4 67 -5.7 21.8 -91.4 -3.598
18:33 1010 29.83 839 24.78 -0.3 31.5 67 -5.8 21.6 -91.4 -3.598
18:34 1010 29.83 839 24.78 -0.2 31.6 66 -5.7 21.7 -91.4 -3.598
18:35 1010 29.83 839 24.78 -0.2 31.7 66 -5.8 21.5 -91.5 -3.602
18:36 1010 29.83 839 24.78 0.1 32.1 65 -5.8 21.5 -91.4 -3.598
18:37 1010 29.83 839 24.78 0.5 32.8 62 -6.1 21.1 -91.5 -3.602
18:38 1010 29.83 839 24.78 0.9 33.7 61 -5.8 21.6 -91.5 -3.602
18:39 1010 29.83 839 24.78 1.3 34.3 60 -5.7 21.8 -91.5 -3.602
18:40 1010 29.83 839 24.78 1.5 34.7 59 -5.7 21.7 -91.5 -3.602
18:41 1010 29.83 839 24.78 1.8 35.2 57 -5.9 21.4 -91.5 -3.602
18:42 1010 29.83 839 24.78 2 35.6 56 -5.8 21.6 -91.5 -3.602
18:43 1010 29.83 839 24.78 2.2 35.9 55 -5.9 21.4 -91.5 -3.602
18:44 1010 29.83 839 24.78 2.3 36.2 55 -5.7 21.7 -91.5 -3.602
18:45 1010 29.83 839 24.78 2.4 36.3 56 -5.5 22.1 -91.5 -3.602
18:46 1010 29.83 839 24.78 2.4 36.3 54 -5.9 21.4 -91.5 -3.602
18:47 1010 29.83 839 24.78 2.5 36.6 54 -5.7 21.7 -91.5 -3.602
18:48 1010 29.83 839 24.78 2.6 36.7 55 -5.7 21.8 -91.5 -3.602
18:49 1010 29.83 839 24.78 2.6 36.7 54 -5.8 21.6 -91.5 -3.602
18:50 1010 29.83 839 24.78 2.6 36.7 54 -5.9 21.4 -91.5 -3.602
18:51 1010 29.83 839 24.78 2.7 36.8 54 -5.8 21.6 -91.5 -3.602
18:52 1010 29.83 839 24.78 2.7 36.8 54 -5.7 21.8 -91.5 -3.602
18:53 1010 29.83 839 24.78 2.6 36.7 54 -5.6 21.8 -91.5 -3.602
18:54 1010 29.83 839 24.78 2.6 36.8 53 -5.9 21.4 -91.5 -3.602
18:55 1010 29.83 839 24.78 2.7 36.8 54 -5.6 21.8 -91.5 -3.602
18:56 1010 29.83 839 24.78 2.7 36.8 54 -5.6 21.9 -91.5 -3.602
18:57 1010 29.83 839 24.78 2.6 36.7 54 -5.7 21.7 -91.5 -3.602
18:58 1010 29.83 839 24.78 2.6 36.6 54 -5.8 21.6 -91.5 -3.602
18:59 1010 29.83 839 24.78 2.6 36.6 54 -5.8 21.5 -91.6 -3.606
19:00 1010 29.83 839 24.78 2.6 36.7 54 -5.7 21.7 -91.5 -3.602
19:01 1010 29.83 839 24.78 2.6 36.7 54 -5.8 21.5 -91.5 -3.602
19:02 1010 29.83 839 24.78 2.6 36.7 54 -5.7 21.8 -91.5 -3.602
19:03 1010 29.83 839 24.78 2.5 36.6 54 -5.8 21.6 -91.5 -3.602
19:04 1010 29.83 839 24.78 2.5 36.5 54 -5.8 21.6 -91.5 -3.602
19:05 1010 29.83 839 24.78 2.5 36.5 54 -5.8 21.5 -91.5 -3.602
19:06 1010 29.83 839 24.78 2.6 36.6 53 -6 21.3 -91.5 -3.602
19:07 1010 29.83 839 24.78 2.7 36.8 52 -6.1 21 -91.5 -3.602
19:08 1010 29.83 839 24.78 2.8 37 53 -5.9 21.4 -91.5 -3.602
19:09 1010 29.83 839 24.78 2.9 37.3 51 -6.2 20.9 -91.5 -3.602
19:10 1010 29.83 839 24.78 3 37.3 52 -5.9 21.5 -91.6 -3.606
19:11 1010 29.83 839 24.78 3 37.3 52 -5.9 21.3 -91.5 -3.602
19:12 1010 29.83 839 24.78 2.9 37.2 52 -6.1 21 -91.5 -3.602
19:13 1010 29.83 839 24.78 2.9 37.3 52 -6 21.3 -91.5 -3.602
19:14 1010 29.83 839 24.78 3 37.3 52 -6 21.2 -91.5 -3.602
19:15 1010 29.83 839 24.78 3 37.3 53 -5.8 21.6 -91.5 -3.602
19:16 1010 29.83 839 24.78 2.9 37.3 52 -5.9 21.4 -91.5 -3.602
19:17 1010 29.83 839 24.78 2.9 37.2 53 -5.8 21.6 -91.5 -3.602
19:18 1010 29.83 839 24.78 2.8 37.1 53 -5.9 21.4 -91.5 -3.602
19:19 1010 29.83 839 24.78 2.8 37 54 -5.7 21.7 -91.5 -3.602
19:20 1010 29.83 839 24.78 2.7 36.8 54 -5.6 21.9 -91.5 -3.602
19:21 1010 29.83 839 24.78 2.5 36.6 55 -5.6 22 -91.5 -3.602
19:22 1010 29.83 839 24.78 2.4 36.4 56 -5.6 22 -91.5 -3.602
19:23 1010 29.83 839 24.78 2.3 36.2 56 -5.7 21.8 -91.5 -3.602
19:24 1010 29.83 839 24.78 2.2 36 56 -5.7 21.8 -91.5 -3.602
19:25 1010 29.83 839 24.78 2.2 35.9 55 -5.8 21.5 -91.5 -3.602
19:26 1010 29.83 839 24.78 2.2 35.9 56 -5.8 21.6 -91.5 -3.602
19:27 1010 29.83 839 24.78 2.1 35.8 56 -5.7 21.7 -91.5 -3.602
19:28 1010 29.83 839 24.78 2.1 35.7 56 -5.8 21.6 -91.5 -3.602
19:29 1010 29.83 839 24.78 2.1 35.8 56 -5.8 21.5 -91.5 -3.602
19:30 1010 29.83 839 24.78 2.1 35.7 56 -5.7 21.7 -91.5 -3.602
19:31 1010 29.83 839 24.78 2.2 35.9 56 -5.8 21.6 -91.5 -3.602
19:32 1010 29.83 839 24.78 2.2 36 55 -5.8 21.5 -91.5 -3.602
19:33 1010 29.83 839 24.78 2.3 36.1 56 -5.6 21.9 -91.5 -3.602
19:34 1010 29.83 839 24.78 2.3 36.2 55 -5.7 21.8 -91.5 -3.602
19:35 1010 29.83 839 24.78 2.3 36.2 56 -5.6 21.9 -91.5 -3.602
19:36 1009 29.8 839 24.78 2.4 36.4 55 -5.8 21.5 -91.5 -3.602
19:37 1009 29.8 839 24.78 2.5 36.5 54 -5.9 21.3 -91.5 -3.602
19:38 1009 29.8 839 24.78 2.6 36.6 55 -5.7 21.8 -91.5 -3.602
19:39 1009 29.8 839 24.78 2.6 36.6 55 -5.6 21.9 -91.5 -3.602
19:40 1009 29.8 839 24.78 2.5 36.5 54 -5.9 21.5 -91.5 -3.602
19:41 1009 29.8 839 24.78 2.5 36.5 54 -5.8 21.6 -91.5 -3.602
19:42 1009 29.8 839 24.78 2.5 36.4 55 -5.7 21.7 -91.5 -3.602
19:43 1009 29.8 839 24.78 2.5 36.4 56 -5.5 22.1 -91.5 -3.602
19:44 1009 29.8 839 24.78 2.4 36.3 56 -5.6 21.9 -91.5 -3.602
19:45 1009 29.8 839 24.78 2.3 36.1 56 -5.7 21.8 -91.5 -3.602
19:46 1009 29.8 839 24.78 2.3 36.1 56 -5.7 21.7 -91.5 -3.602
19:47 1009 29.8 839 24.78 2.2 36 57 -5.5 22.1 -91.5 -3.602
19:48 1009 29.8 838 24.75 2.2 35.9 57 -5.5 22.2 -91.5 -3.602
19:49 1009 29.8 838 24.75 2.1 35.8 57 -5.4 22.2 -91.5 -3.602
19:50 1009 29.8 838 24.75 2 35.7 57 -5.6 22 -91.5 -3.602
19:51 1009 29.8 838 24.75 2 35.6 57 -5.5 22 -91.5 -3.602
19:52 1009 29.8 838 24.75 2 35.6 58 -5.4 22.3 -91.5 -3.602
19:53 1009 29.8 838 24.75 1.9 35.4 59 -5.2 22.6 -91.5 -3.602
19:54 1009 29.8 838 24.75 1.8 35.2 59 -5.3 22.4 -91.5 -3.602
19:55 1009 29.8 838 24.75 1.8 35.2 58 -5.7 21.7 -91.5 -3.602
19:56 1009 29.8 838 24.75 1.9 35.5 56 -5.9 21.5 -91.5 -3.602
19:57 1009 29.8 838 24.75 2.1 35.7 55 -5.9 21.3 -91.5 -3.602
19:58 1009 29.8 838 24.75 2.2 35.9 55 -6 21.2 -91.5 -3.602
19:59 1009 29.8 838 24.75 2.3 36.1 55 -5.8 21.6 -91.5 -3.602
20:00 1009 29.8 838 24.75 2.3 36.1 55 -5.8 21.6 -91.5 -3.602
20:01 1009 29.8 838 24.75 2.3 36.1 56 -5.5 22 -91.5 -3.602
20:02 1009 29.8 838 24.75 2.2 35.9 58 -5.3 22.5 -91.5 -3.602
20:03 1009 29.8 838 24.75 2 35.7 59 -5.2 22.6 -91.5 -3.602
20:04 1009 29.8 838 24.75 1.9 35.4 59 -5.4 22.4 -91.5 -3.602
20:05 1009 29.8 838 24.75 1.8 35.2 57 -5.9 21.4 -91.5 -3.602
20:06 1009 29.8 838 24.75 1.9 35.4 54 -6.4 20.6 -91.5 -3.602
20:07 1009 29.8 838 24.75 2 35.7 54 -6.2 20.8 -91.5 -3.602
20:08 1009 29.8 838 24.75 2.2 35.9 52 -6.7 20 -91.5 -3.602
20:09 1009 29.8 838 24.75 2.5 36.5 52 -6.5 20.3 -91.5 -3.602
20:10 1009 29.8 838 24.75 2.7 36.9 52 -6.1 21 -91.5 -3.602
20:11 1009 29.8 838 24.75 2.8 37 52 -6.1 20.9 -91.5 -3.602
20:12 1009 29.8 838 24.75 2.8 37.1 52 -6.1 21 -91.5 -3.602
20:13 1009 29.8 838 24.75 2.8 37.1 52 -6.1 21 -91.5 -3.602
20:14 1009 29.8 838 24.75 2.9 37.2 53 -5.8 21.5 -91.5 -3.602
20:15 1009 29.8 838 24.75 2.9 37.2 54 -5.6 22 -91.5 -3.602
20:16 1009 29.8 838 24.75 2.9 37.2 54 -5.5 22.1 -91.5 -3.602
20:17 1009 29.8 838 24.75 2.8 37.1 55 -5.4 22.4 -91.5 -3.602
20:18 1009 29.8 838 24.75 2.8 37.1 56 -5 23 -91.5 -3.602
20:19 1009 29.8 838 24.75 2.7 36.9 57 -5 23.1 -91.5 -3.602
20:20 1009 29.8 838 24.75 2.6 36.7 53 -6.1 21.1 -91.5 -3.602
20:21 1009 29.8 838 24.75 2.8 37 54 -5.6 22 -91.5 -3.602
20:22 1009 29.8 838 24.75 2.8 37.1 54 -5.6 22 -91.5 -3.602
20:23 1009 29.8 838 24.75 2.9 37.2 52 -6 21.1 -91.5 -3.602
20:24 1009 29.8 838 24.75 3 37.4 53 -5.6 22 -91.5 -3.602
20:25 1008 29.77 838 24.75 3.1 37.5 53 -5.6 21.9 -91.5 -3.602
20:26 1008 29.77 838 24.75 3.1 37.6 53 -5.6 21.9 -91.5 -3.602
20:27 1008 29.77 838 24.75 3.2 37.7 53 -5.5 22 -91.5 -3.602
20:28 1008 29.77 838 24.75 3.1 37.6 53 -5.4 22.2 -91.4 -3.598
20:29 1008 29.77 838 24.75 3 37.5 53 -5.6 22 -91.5 -3.602
20:30 1008 29.77 838 24.75 2.9 37.3 54 -5.6 22 -91.5 -3.602
20:31 1008 29.77 838 24.75 2.9 37.2 53 -5.7 21.7 -91.5 -3.602
20:32 1008 29.77 838 24.75 2.9 37.1 53 -5.8 21.6 -91.5 -3.602
20:33 1008 29.77 838 24.75 2.9 37.2 54 -5.5 22 -91.4 -3.598
20:34 1008 29.77 837 24.72 2.9 37.2 54 -5.6 21.9 -91.4 -3.598
20:35 1008 29.77 837 24.72 2.9 37.3 53 -5.6 21.9 -91.4 -3.598
20:36 1008 29.77 837 24.72 2.9 37.3 53 -5.7 21.8 -91.4 -3.598
20:37 1008 29.77 837 24.72 3 37.4 53 -5.7 21.7 -91.4 -3.598
20:38 1008 29.77 837 24.72 3 37.4 53 -5.7 21.7 -91.4 -3.598
20:39 1008 29.77 837 24.72 3.1 37.6 53 -5.6 21.8 -91.4 -3.598
20:40 1008 29.77 837 24.72 3.2 37.8 52 -5.6 21.8 -91.4 -3.598
20:41 1008 29.77 837 24.72 3.2 37.8 53 -5.5 22.2 -91.4 -3.598
20:42 1008 29.77 837 24.72 3.2 37.8 52 -5.8 21.5 -91.4 -3.598
20:43 1008 29.77 837 24.72 3.3 37.9 52 -5.7 21.7 -91.4 -3.598
20:44 1008 29.77 837 24.72 3.4 38 51 -5.8 21.5 -91.4 -3.598
20:45 1008 29.77 837 24.72 3.4 38 51 -5.8 21.5 -91.4 -3.598
20:46 1008 29.77 837 24.72 3.4 38.2 51 -5.8 21.6 -91.4 -3.598
20:47 1008 29.77 837 24.72 3.5 38.3 52 -5.5 22.1 -91.4 -3.598
20:48 1008 29.77 837 24.72 3.4 38.2 50 -6 21.2 -91.4 -3.598
20:49 1008 29.77 837 24.72 3.6 38.5 50 -5.8 21.6 -91.4 -3.598
20:50 1008 29.77 837 24.72 3.8 38.9 51 -5.5 22.1 -91.4 -3.598
20:51 1008 29.77 837 24.72 3.9 38.9 50 -5.5 22 -91.4 -3.598
20:52 1008 29.77 837 24.72 3.8 38.9 52 -5.2 22.7 -91.4 -3.598
20:53 1008 29.77 837 24.72 3.7 38.6 52 -5.2 22.7 -91.4 -3.598
20:54 1008 29.77 837 24.72 3.5 38.4 52 -5.5 22.1 -91.4 -3.598
20:55 1008 29.77 837 24.72 3.4 38.2 52 -5.5 22.1 -91.4 -3.598
20:56 1008 29.77 837 24.72 3.5 38.2 52 -5.4 22.2 -91.4 -3.598
20:57 1008 29.77 837 24.72 3.5 38.3 53 -5.2 22.7 -91.4 -3.598
20:58 1008 29.77 837 24.72 3.5 38.4 54 -4.9 23.2 -91.4 -3.598
20:59 1008 29.77 837 24.72 3.6 38.5 53 -5.1 22.8 -91.4 -3.598
21:00 1008 29.77 837 24.72 3.6 38.5 53 -5.1 22.8 -91.4 -3.598
21:01 1008 29.77 837 24.72 3.7 38.6 54 -4.8 23.3 -91.4 -3.598
21:02 1008 29.77 837 24.72 3.6 38.5 54 -4.9 23.3 -91.4 -3.598
21:03 1008 29.77 837 24.72 3.6 38.4 54 -4.8 23.4 -91.4 -3.598
21:04 1008 29.77 837 24.72 3.5 38.3 55 -4.8 23.4 -91.4 -3.598
21:05 1008 29.77 837 24.72 3.5 38.2 55 -4.8 23.3 -91.4 -3.598
21:06 1008 29.77 837 24.72 3.4 38.1 55 -4.8 23.4 -91.4 -3.598
21:07 1008 29.77 837 24.72 3.4 38.1 55 -4.8 23.4 -91.4 -3.598
21:08 1008 29.77 837 24.72 3.3 38 55 -4.9 23.1 -91.4 -3.598
21:09 1008 29.77 837 24.72 3.4 38.1 55 -4.9 23.2 -91.4 -3.598
21:10 1008 29.77 837 24.72 3.4 38.1 55 -4.8 23.4 -91.4 -3.598
21:11 1008 29.77 837 24.72 3.4 38.1 54 -5 22.9 -91.4 -3.598
21:12 1007 29.74 837 24.72 3.5 38.2 54 -5 23 -91.4 -3.598
21:13 1007 29.74 837 24.72 3.6 38.4 53 -5.1 22.7 -91.4 -3.598
21:14 1007 29.74 837 24.72 3.7 38.7 53 -5 23 -91.4 -3.598
21:15 1007 29.74 837 24.72 3.8 38.8 52 -5.1 22.9 -91.4 -3.598
21:16 1007 29.74 837 24.72 3.8 38.9 52 -5.1 22.8 -91.4 -3.598
21:17 1007 29.74 836 24.69 3.9 38.9 52 -5 23 -91.4 -3.598
21:18 1007 29.74 836 24.69 3.8 38.9 53 -4.9 23.3 -91.4 -3.598
21:19 1007 29.74 836 24.69 3.8 38.9 52 -5 23 -91.4 -3.598
21:20 1007 29.74 836 24.69 3.8 38.9 52 -5 23 -91.4 -3.598
21:21 1007 29.74 836 24.69 3.9 39 53 -4.8 23.4 -91.4 -3.598
21:22 1007 29.74 836 24.69 3.8 38.9 54 -4.7 23.5 -91.4 -3.598
21:23 1007 29.74 836 24.69 3.7 38.6 54 -4.6 23.6 -91.4 -3.598
21:24 1007 29.74 836 24.69 3.5 38.4 55 -4.6 23.6 -91.4 -3.598
21:25 1007 29.74 836 24.69 3.4 38.1 56 -4.6 23.7 -91.4 -3.598
21:26 1007 29.74 836 24.69 3.3 38 56 -4.6 23.7 -91.4 -3.598
21:27 1007 29.74 836 24.69 3.3 37.9 57 -4.5 23.9 -91.4 -3.598
21:28 1007 29.74 836 24.69 3.2 37.8 57 -4.4 24 -91.4 -3.598
21:29 1007 29.74 836 24.69 3.1 37.5 58 -4.5 24 -91.4 -3.598
21:30 1007 29.74 836 24.69 3 37.4 58 -4.4 24 -91.4 -3.598
21:31 1007 29.74 836 24.69 2.9 37.2 58 -4.4 24 -91.4 -3.598
21:32 1007 29.74 836 24.69 2.9 37.2 59 -4.3 24.2 -91.4 -3.598
21:33 1007 29.74 836 24.69 2.9 37.2 59 -4.3 24.3 -91.3 -3.594
21:34 1007 29.74 836 24.69 2.9 37.2 59 -4.3 24.3 -91.3 -3.594
21:35 1007 29.74 836 24.69 2.9 37.2 59 -4.4 24.1 -91.3 -3.594
21:36 1007 29.74 836 24.69 3 37.3 59 -4.2 24.4 -91.3 -3.594
21:37 1007 29.74 836 24.69 3 37.3 59 -4.2 24.5 -91.3 -3.594
21:38 1007 29.74 836 24.69 3 37.3 60 -4.1 24.6 -91.3 -3.594
21:39 1007 29.74 836 24.69 2.9 37.2 59 -4.3 24.2 -91.3 -3.594
21:40 1007 29.74 836 24.69 3 37.4 59 -4.2 24.5 -91.3 -3.594
21:41 1007 29.74 836 24.69 3 37.5 59 -4.2 24.4 -91.3 -3.594
21:42 1007 29.74 836 24.69 3.1 37.5 59 -4.3 24.3 -91.3 -3.594
21:43 1007 29.74 836 24.69 3.1 37.6 59 -4.2 24.4 -91.3 -3.594
21:44 1007 29.74 836 24.69 3.2 37.8 58 -4.2 24.5 -91.3 -3.594
21:45 1007 29.74 836 24.69 3.2 37.8 58 -4.2 24.5 -91.3 -3.594
21:46 1007 29.74 836 24.69 3.2 37.8 58 -4.2 24.5 -91.3 -3.594
21:47 1007 29.74 836 24.69 3.2 37.8 59 -4.1 24.6 -91.3 -3.594
21:48 1007 29.74 836 24.69 3.2 37.7 59 -4.1 24.7 -91.3 -3.594
21:49 1007 29.74 836 24.69 3.2 37.7 59 -4.1 24.5 -91.3 -3.594
21:50 1007 29.74 836 24.69 3.1 37.6 59 -4.2 24.5 -91.3 -3.594
21:51 1007 29.74 836 24.69 3.1 37.5 59 -4.2 24.5 -91.3 -3.594
21:52 1007 29.74 836 24.69 3 37.4 59 -4.2 24.4 -91.3 -3.594
21:53 1007 29.74 836 24.69 3 37.4 57 -4.7 23.5 -91.3 -3.594
21:54 1007 29.74 836 24.69 2.8 37 58 -4.8 23.4 -91.3 -3.594
21:55 1007 29.74 836 24.69 2.6 36.7 58 -4.8 23.4 -91.3 -3.594
21:56 1007 29.74 836 24.69 2.4 36.3 58 -5 23 -91.3 -3.594
21:57 1007 29.74 836 24.69 2.4 36.3 59 -4.8 23.4 -91.3 -3.594
21:58 1007 29.74 836 24.69 2.3 36.1 59 -5 23.1 -91.3 -3.594
21:59 1007 29.74 836 24.69 2.1 35.8 58 -5.3 22.5 -91.3 -3.594
22:00 1007 29.74 836 24.69 2.1 35.7 60 -4.9 23.2 -91.4 -3.598
22:01 1007 29.74 836 24.69 1.9 35.5 60 -5 23 -91.4 -3.598
22:02 1007 29.74 836 24.69 1.8 35.2 60 -5.2 22.6 -91.4 -3.598
22:03 1007 29.74 836 24.69 1.7 35.1 60 -5.2 22.6 -91.4 -3.598
22:04 1007 29.74 836 24.69 1.7 35.1 60 -5.3 22.4 -91.4 -3.598
22:05 1007 29.74 836 24.69 1.7 35 61 -5.1 22.9 -91.4 -3.598
22:06 1007 29.74 836 24.69 1.6 34.8 61 -5.2 22.6 -91.4 -3.598
22:07 1007 29.74 836 24.69 1.6 34.8 61 -5.2 22.6 -91.4 -3.598
22:08 1007 29.74 836 24.69 1.5 34.8 63 -4.8 23.4 -91.4 -3.598
22:09 1007 29.74 836 24.69 1.3 34.4 63 -5 23.1 -91.4 -3.598
22:10 1007 29.74 836 24.69 1.3 34.4 64 -4.8 23.3 -91.4 -3.598
22:11 1006 29.71 836 24.69 1.3 34.3 65 -4.6 23.7 -91.4 -3.598
22:12 1006 29.71 836 24.69 1.2 34.1 64 -4.8 23.4 -91.4 -3.598
22:13 1006 29.71 836 24.69 1.2 34.1 64 -5 23 -91.4 -3.598
22:14 1006 29.71 836 24.69 1.3 34.3 63 -5.1 22.9 -91.4 -3.598
22:15 1006 29.71 836 24.69 1.5 34.8 60 -5.5 22.1 -91.4 -3.598
22:16 1006 29.71 836 24.69 1.9 35.4 59 -5.4 22.3 -91.4 -3.598
22:17 1006 29.71 836 24.69 1.9 35.5 61 -4.8 23.4 -91.4 -3.598
22:18 1007 29.74 836 24.69 1.8 35.2 62 -4.8 23.4 -91.4 -3.598
22:19 1006 29.71 836 24.69 1.6 35 58 -5.8 21.6 -91.4 -3.598
22:20 1006 29.71 836 24.69 1.8 35.3 58 -5.5 22.1 -91.4 -3.598
22:21 1006 29.71 836 24.69 1.9 35.4 60 -5 23 -91.3 -3.594
22:22 1006 29.71 836 24.69 1.8 35.2 61 -5 22.9 -91.3 -3.594
22:23 1006 29.71 836 24.69 1.8 35.2 59 -5.4 22.3 -91.3 -3.594
22:24 1006 29.71 836 24.69 1.8 35.2 60 -5.2 22.6 -91.4 -3.598
22:25 1006 29.71 836 24.69 1.8 35.2 61 -5 23 -91.4 -3.598
22:26 1006 29.71 836 24.69 1.8 35.2 57 -5.9 21.5 -91.4 -3.598
22:27 1006 29.71 835 24.66 2.1 35.8 56 -5.8 21.5 -91.4 -3.598
22:28 1006 29.71 836 24.69 2.3 36.1 57 -5.5 22.1 -91.4 -3.598
22:29 1006 29.71 836 24.69 2.3 36.2 57 -5.3 22.4 -91.4 -3.598
22:30 1006 29.71 836 24.69 2.4 36.3 60 -4.7 23.6 -91.4 -3.598
22:31 1006 29.71 835 24.66 2.5 36.4 62 -4 24.7 -91.4 -3.598
22:32 1006 29.71 835 24.66 2.8 37 63 -3.6 25.4 -91.4 -3.598
22:33 1006 29.71 835 24.66 3.2 37.7 62 -3.5 25.7 -91.4 -3.598
22:34 1006 29.71 835 24.66 3.5 38.2 60 -3.5 25.7 -91.4 -3.598
22:35 1006 29.71 835 24.66 3.7 38.7 59 -3.5 25.6 -91.4 -3.598
22:36 1006 29.71 835 24.66 3.9 39.1 59 -3.4 25.9 -91.4 -3.598
22:37 1006 29.71 835 24.66 4.1 39.3 58 -3.4 25.8 -91.4 -3.598
22:38 1006 29.71 835 24.66 4.2 39.6 58 -3.3 26 -91.4 -3.598
22:39 1006 29.71 835 24.66 4.3 39.7 58 -3.2 26.2 -91.4 -3.598
22:40 1006 29.71 835 24.66 4.2 39.6 58 -3.3 26 -91.4 -3.598
22:41 1006 29.71 835 24.66 4.3 39.7 58 -3.2 26.3 -91.4 -3.598
22:42 1006 29.71 835 24.66 4.2 39.6 58 -3.2 26.3 -91.4 -3.598
22:43 1006 29.71 835 24.66 4.2 39.6 59 -3.1 26.5 -91.4 -3.598
22:44 1006 29.71 835 24.66 4.2 39.5 60 -3 26.7 -91.4 -3.598
22:45 1006 29.71 835 24.66 4.1 39.5 60 -3 26.5 -91.4 -3.598
22:46 1006 29.71 835 24.66 4.1 39.4 60 -2.9 26.7 -91.4 -3.598
22:47 1006 29.71 835 24.66 4.1 39.5 59 -3.1 26.5 -91.4 -3.598
22:48 1006 29.71 835 24.66 4.2 39.6 59 -2.9 26.7 -91.4 -3.598
22:49 1006 29.71 835 24.66 4.2 39.6 61 -2.7 27.1 -91.3 -3.594
22:50 1006 29.71 835 24.66 4.1 39.4 61 -2.8 27 -91.3 -3.594
22:51 1006 29.71 835 24.66 4.1 39.4 61 -2.8 26.9 -91.3 -3.594
22:52 1006 29.71 835 24.66 4.1 39.4 61 -2.8 27 -91.3 -3.594
22:53 1006 29.71 835 24.66 4.1 39.4 62 -2.6 27.3 -91.3 -3.594
22:54 1006 29.71 835 24.66 4 39.2 61 -2.7 27.1 -91.3 -3.594
22:55 1006 29.71 835 24.66 4 39.2 62 -2.7 27.1 -91.3 -3.594
22:56 1006 29.71 835 24.66 4 39.2 61 -2.7 27.1 -91.3 -3.594
22:57 1006 29.71 835 24.66 4 39.2 62 -2.6 27.3 -91.3 -3.594
22:58 1006 29.71 835 24.66 4 39.2 62 -2.6 27.3 -91.3 -3.594
22:59 1006 29.71 835 24.66 4 39.2 62 -2.6 27.3 -91.3 -3.594
23:00 1006 29.71 835 24.66 4 39.1 63 -2.5 27.5 -91.3 -3.594
23:01 1006 29.71 835 24.66 3.9 39 62 -2.6 27.3 -91.3 -3.594
23:02 1006 29.71 835 24.66 3.9 39 63 -2.5 27.5 -91.3 -3.594
23:03 1006 29.71 835 24.66 3.9 38.9 64 -2.4 27.7 -91.3 -3.594
23:04 1005 29.68 835 24.66 3.8 38.9 61 -3.1 26.4 -91.3 -3.594
23:05 1005 29.68 835 24.66 4.1 39.4 61 -2.6 27.3 -91.3 -3.594
23:06 1006 29.71 835 24.66 4.2 39.5 62 -2.5 27.5 -91.3 -3.594
23:07 1005 29.68 835 24.66 4.1 39.4 61 -2.7 27.2 -91.3 -3.594
23:08 1006 29.71 835 24.66 4.2 39.5 61 -2.8 27 -91.3 -3.594
23:09 1005 29.68 835 24.66 4.2 39.6 61 -2.7 27.1 -91.3 -3.594
23:10 1005 29.68 835 24.66 4.3 39.7 61 -2.6 27.4 -91.3 -3.594
23:11 1005 29.68 835 24.66 4.2 39.6 61 -2.7 27.1 -91.3 -3.594
23:12 1005 29.68 835 24.66 4.2 39.6 61 -2.6 27.2 -91.3 -3.594
23:13 1006 29.71 835 24.66 4.2 39.6 61 -2.5 27.4 -91.3 -3.594
23:14 1005 29.68 835 24.66 4.2 39.6 61 -2.6 27.4 -91.3 -3.594
23:15 1005 29.68 835 24.66 4.2 39.5 62 -2.6 27.4 -91.3 -3.594
23:16 1005 29.68 835 24.66 4.2 39.5 62 -2.5 27.4 -91.2 -3.591
23:17 1005 29.68 835 24.66 4.1 39.4 61 -2.6 27.3 -91.2 -3.591
23:18 1005 29.68 835 24.66 4.2 39.5 61 -2.6 27.4 -91.2 -3.591
23:19 1005 29.68 835 24.66 4.2 39.5 62 -2.5 27.5 -91.2 -3.591
23:20 1005 29.68 835 24.66 4.1 39.4 63 -2.3 27.8 -91.2 -3.591
23:21 1005 29.68 835 24.66 4 39.2 63 -2.4 27.7 -91.2 -3.591
23:22 1005 29.68 835 24.66 4 39.2 63 -2.4 27.7 -91.2 -3.591
23:23 1005 29.68 835 24.66 3.9 39 63 -2.4 27.6 -91.2 -3.591
23:24 1005 29.68 834 24.63 3.9 39 63 -2.5 27.5 -91.2 -3.591
23:25 1005 29.68 834 24.63 3.9 39.1 63 -2.6 27.4 -91.2 -3.591
23:26 1005 29.68 834 24.63 3.9 39.1 63 -2.5 27.6 -91.2 -3.591
23:27 1005 29.68 834 24.63 4 39.1 63 -2.5 27.5 -91.2 -3.591
23:28 1005 29.68 834 24.63 4 39.1 62 -2.7 27.2 -91.2 -3.591
23:29 1005 29.68 834 24.63 4.1 39.3 61 -2.8 27 -91.2 -3.591
23:30 1005 29.68 834 24.63 4.3 39.7 61 -2.6 27.4 -91.2 -3.591
23:31 1005 29.68 834 24.63 4.3 39.8 61 -2.6 27.3 -91.2 -3.591
23:32 1005 29.68 834 24.63 4.3 39.8 61 -2.6 27.3 -91.2 -3.591
23:33 1005 29.68 834 24.63 4.4 39.9 60 -2.8 27 -91.2 -3.591
23:34 1005 29.68 834 24.63 4.5 40.1 60 -2.6 27.3 -91.2 -3.591
23:35 1005 29.68 834 24.63 4.5 40.1 59 -2.8 27 -91.2 -3.591
23:36 1005 29.68 834 24.63 4.6 40.2 59 -2.7 27.2 -91.2 -3.591
23:37 1005 29.68 834 24.63 4.6 40.2 60 -2.6 27.4 -91.2 -3.591
23:38 1005 29.68 834 24.63 4.5 40.1 60 -2.5 27.5 -91.2 -3.591
23:39 1005 29.68 834 24.63 4.4 40 61 -2.5 27.6 -91.2 -3.591
23:40 1005 29.68 834 24.63 4.3 39.7 61 -2.5 27.5 -91.2 -3.591
23:41 1005 29.68 834 24.63 4.3 39.7 61 -2.5 27.5 -91.2 -3.591
23:42 1005 29.68 834 24.63 4.3 39.7 61 -2.5 27.5 -91.2 -3.591
23:43 1005 29.68 834 24.63 4.2 39.6 62 -2.4 27.6 -91.2 -3.591
23:44 1005 29.68 834 24.63 4.2 39.6 62 -2.4 27.7 -91.2 -3.591
23:45 1005 29.68 834 24.63 4.2 39.5 62 -2.4 27.6 -91.2 -3.591
23:46 1005 29.68 834 24.63 4.2 39.5 62 -2.4 27.6 -91.2 -3.591
23:47 1005 29.68 834 24.63 4.1 39.5 62 -2.4 27.7 -91.2 -3.591
23:48 1005 29.68 834 24.63 4.1 39.4 63 -2.4 27.7 -91.1 -3.587
23:49 1004 29.65 834 24.63 4 39.3 63 -2.5 27.6 -91.1 -3.587
23:50 1004 29.65 834 24.63 4 39.2 63 -2.5 27.6 -91.1 -3.587
23:51 1004 29.65 834 24.63 4 39.1 63 -2.5 27.5 -91.2 -3.591
23:52 1004 29.65 834 24.63 4 39.1 62 -2.5 27.4 -91.1 -3.587
23:53 1004 29.65 834 24.63 4 39.2 63 -2.5 27.5 -91.1 -3.587
23:54 1004 29.65 834 24.63 3.9 39.1 63 -2.4 27.7 -91.1 -3.587
23:55 1004 29.65 834 24.63 3.7 38.6 64 -2.6 27.4 -91.1 -3.587
23:56 1004 29.65 834 24.63 3.6 38.4 64 -2.7 27.2 -91.1 -3.587
23:57 1004 29.65 834 24.63 3.5 38.3 64 -2.7 27.2 -91.1 -3.587
23:58 1004 29.65 834 24.63 3.5 38.2 64 -2.7 27.1 -91.1 -3.587
23:59 1004 29.65 833 24.6 3.3 38 64 -2.8 27 -91.1 -3.587
24:00 1004 29.65 833 24.6 3.3 37.9 64 -2.9 26.8 -91.1 -3.587